<?xml version="1.0" encoding="UTF-8" ?>
<gpx version="1.1" xmlns:xsi="http://www.w3.org/2001/XMLSchema-instance" 
    xmlns="http://www.topografix.com/GPX/1/1" 
    xsi:schemaLocation="http://www.topografix.com/GPX/1/1 http://www.topografix.com/GPX/1/1/gpx.xsd" 
    creator="Openrunner - https://www.openrunner.com" >	<trk>
						<name>Gravel-CM-2ème boucle-Fallières-Raon-29km-560m+-15810770</name>
						<trkseg>
					<trkpt lat="48.012620" lon="6.588560">
						<ele>415</ele>
						<time>2023-07-03T06:50:04Z</time>
					</trkpt>
					<trkpt lat="48.012580" lon="6.588280">
						<ele>415</ele>
						<time>2023-07-03T06:50:07Z</time>
					</trkpt>
					<trkpt lat="48.012570" lon="6.588060">
						<ele>415</ele>
						<time>2023-07-03T06:50:10Z</time>
					</trkpt>
					<trkpt lat="48.012530" lon="6.587980">
						<ele>415</ele>
						<time>2023-07-03T06:50:11Z</time>
					</trkpt>
					<trkpt lat="48.012550" lon="6.587800">
						<ele>414</ele>
						<time>2023-07-03T06:50:13Z</time>
					</trkpt>
					<trkpt lat="48.011860" lon="6.587250">
						<ele>418</ele>
						<time>2023-07-03T06:50:27Z</time>
					</trkpt>
					<trkpt lat="48.011680" lon="6.587080">
						<ele>419</ele>
						<time>2023-07-03T06:50:31Z</time>
					</trkpt>
					<trkpt lat="48.011570" lon="6.586920">
						<ele>420</ele>
						<time>2023-07-03T06:50:34Z</time>
					</trkpt>
					<trkpt lat="48.011370" lon="6.586510">
						<ele>421</ele>
						<time>2023-07-03T06:50:40Z</time>
					</trkpt>
					<trkpt lat="48.011350" lon="6.586370">
						<ele>422</ele>
						<time>2023-07-03T06:50:42Z</time>
					</trkpt>
					<trkpt lat="48.011400" lon="6.586340">
						<ele>421</ele>
						<time>2023-07-03T06:50:43Z</time>
					</trkpt>
					<trkpt lat="48.011730" lon="6.586380">
						<ele>419</ele>
						<time>2023-07-03T06:50:48Z</time>
					</trkpt>
					<trkpt lat="48.011940" lon="6.586370">
						<ele>417</ele>
						<time>2023-07-03T06:50:52Z</time>
					</trkpt>
					<trkpt lat="48.012020" lon="6.586350">
						<ele>417</ele>
						<time>2023-07-03T06:50:54Z</time>
					</trkpt>
					<trkpt lat="48.012170" lon="6.586250">
						<ele>416</ele>
						<time>2023-07-03T06:50:57Z</time>
					</trkpt>
					<trkpt lat="48.012340" lon="6.586040">
						<ele>415</ele>
						<time>2023-07-03T06:51:00Z</time>
					</trkpt>
					<trkpt lat="48.012550" lon="6.585690">
						<ele>414</ele>
						<time>2023-07-03T06:51:06Z</time>
					</trkpt>
					<trkpt lat="48.012790" lon="6.585890">
						<ele>413</ele>
						<time>2023-07-03T06:51:11Z</time>
					</trkpt>
					<trkpt lat="48.013090" lon="6.586200">
						<ele>412</ele>
						<time>2023-07-03T06:51:17Z</time>
					</trkpt>
					<trkpt lat="48.013620" lon="6.586230">
						<ele>411</ele>
						<time>2023-07-03T06:51:27Z</time>
					</trkpt>
					<trkpt lat="48.014200" lon="6.586200">
						<ele>410</ele>
						<time>2023-07-03T06:51:37Z</time>
					</trkpt>
					<trkpt lat="48.015010" lon="6.586160">
						<ele>407</ele>
						<time>2023-07-03T06:51:52Z</time>
					</trkpt>
					<trkpt lat="48.016440" lon="6.586080">
						<ele>405</ele>
						<time>2023-07-03T06:52:17Z</time>
					</trkpt>
					<trkpt lat="48.016350" lon="6.585220">
						<ele>406</ele>
						<time>2023-07-03T06:52:27Z</time>
					</trkpt>
					<trkpt lat="48.016230" lon="6.583620">
						<ele>411</ele>
						<time>2023-07-03T06:52:47Z</time>
					</trkpt>
					<trkpt lat="48.016260" lon="6.583280">
						<ele>412</ele>
						<time>2023-07-03T06:52:51Z</time>
					</trkpt>
					<trkpt lat="48.016430" lon="6.582890">
						<ele>412</ele>
						<time>2023-07-03T06:52:56Z</time>
					</trkpt>
					<trkpt lat="48.016900" lon="6.582230">
						<ele>412</ele>
						<time>2023-07-03T06:53:08Z</time>
					</trkpt>
					<trkpt lat="48.017390" lon="6.581040">
						<ele>415</ele>
						<time>2023-07-03T06:53:24Z</time>
					</trkpt>
					<trkpt lat="48.017790" lon="6.579070">
						<ele>439</ele>
						<time>2023-07-03T06:53:49Z</time>
					</trkpt>
					<trkpt lat="48.018440" lon="6.576950">
						<ele>442</ele>
						<time>2023-07-03T06:54:17Z</time>
					</trkpt>
					<trkpt lat="48.018690" lon="6.575530">
						<ele>448</ele>
						<time>2023-07-03T06:54:34Z</time>
					</trkpt>
					<trkpt lat="48.018960" lon="6.573500">
						<ele>447</ele>
						<time>2023-07-03T06:54:59Z</time>
					</trkpt>
					<trkpt lat="48.019160" lon="6.572020">
						<ele>443</ele>
						<time>2023-07-03T06:55:17Z</time>
					</trkpt>
					<trkpt lat="48.019430" lon="6.570480">
						<ele>446</ele>
						<time>2023-07-03T06:55:36Z</time>
					</trkpt>
					<trkpt lat="48.019560" lon="6.569490">
						<ele>448</ele>
						<time>2023-07-03T06:55:48Z</time>
					</trkpt>
					<trkpt lat="48.019520" lon="6.569490">
						<ele>449</ele>
						<time>2023-07-03T06:55:48Z</time>
					</trkpt>
					<trkpt lat="48.019420" lon="6.569410">
						<ele>450</ele>
						<time>2023-07-03T06:55:50Z</time>
					</trkpt>
					<trkpt lat="48.019390" lon="6.569330">
						<ele>450</ele>
						<time>2023-07-03T06:55:51Z</time>
					</trkpt>
					<trkpt lat="48.019280" lon="6.569210">
						<ele>451</ele>
						<time>2023-07-03T06:55:54Z</time>
					</trkpt>
					<trkpt lat="48.019210" lon="6.569030">
						<ele>451</ele>
						<time>2023-07-03T06:55:56Z</time>
					</trkpt>
					<trkpt lat="48.019000" lon="6.568230">
						<ele>454</ele>
						<time>2023-07-03T06:56:07Z</time>
					</trkpt>
					<trkpt lat="48.018910" lon="6.568000">
						<ele>455</ele>
						<time>2023-07-03T06:56:10Z</time>
					</trkpt>
					<trkpt lat="48.018800" lon="6.567830">
						<ele>457</ele>
						<time>2023-07-03T06:56:13Z</time>
					</trkpt>
					<trkpt lat="48.018300" lon="6.567260">
						<ele>461</ele>
						<time>2023-07-03T06:56:24Z</time>
					</trkpt>
					<trkpt lat="48.017910" lon="6.566860">
						<ele>463</ele>
						<time>2023-07-03T06:56:32Z</time>
					</trkpt>
					<trkpt lat="48.017640" lon="6.566690">
						<ele>464</ele>
						<time>2023-07-03T06:56:37Z</time>
					</trkpt>
					<trkpt lat="48.017430" lon="6.566540">
						<ele>466</ele>
						<time>2023-07-03T06:56:42Z</time>
					</trkpt>
					<trkpt lat="48.016980" lon="6.566120">
						<ele>467</ele>
						<time>2023-07-03T06:56:51Z</time>
					</trkpt>
					<trkpt lat="48.016190" lon="6.565460">
						<ele>473</ele>
						<time>2023-07-03T06:57:07Z</time>
					</trkpt>
					<trkpt lat="48.016050" lon="6.565380">
						<ele>474</ele>
						<time>2023-07-03T06:57:10Z</time>
					</trkpt>
					<trkpt lat="48.015890" lon="6.565350">
						<ele>475</ele>
						<time>2023-07-03T06:57:13Z</time>
					</trkpt>
					<trkpt lat="48.015730" lon="6.565410">
						<ele>477</ele>
						<time>2023-07-03T06:57:16Z</time>
					</trkpt>
					<trkpt lat="48.015450" lon="6.565580">
						<ele>480</ele>
						<time>2023-07-03T06:57:21Z</time>
					</trkpt>
					<trkpt lat="48.015140" lon="6.565820">
						<ele>483</ele>
						<time>2023-07-03T06:57:27Z</time>
					</trkpt>
					<trkpt lat="48.014110" lon="6.566530">
						<ele>497</ele>
						<time>2023-07-03T06:57:47Z</time>
					</trkpt>
					<trkpt lat="48.013970" lon="6.566600">
						<ele>499</ele>
						<time>2023-07-03T06:57:50Z</time>
					</trkpt>
					<trkpt lat="48.013830" lon="6.566590">
						<ele>499</ele>
						<time>2023-07-03T06:57:52Z</time>
					</trkpt>
					<trkpt lat="48.013750" lon="6.566540">
						<ele>499</ele>
						<time>2023-07-03T06:57:54Z</time>
					</trkpt>
					<trkpt lat="48.013640" lon="6.566410">
						<ele>498</ele>
						<time>2023-07-03T06:57:56Z</time>
					</trkpt>
					<trkpt lat="48.013580" lon="6.566300">
						<ele>497</ele>
						<time>2023-07-03T06:57:58Z</time>
					</trkpt>
					<trkpt lat="48.013520" lon="6.566130">
						<ele>495</ele>
						<time>2023-07-03T06:58:00Z</time>
					</trkpt>
					<trkpt lat="48.013440" lon="6.565780">
						<ele>492</ele>
						<time>2023-07-03T06:58:05Z</time>
					</trkpt>
					<trkpt lat="48.013290" lon="6.564830">
						<ele>496</ele>
						<time>2023-07-03T06:58:16Z</time>
					</trkpt>
					<trkpt lat="48.013180" lon="6.564200">
						<ele>498</ele>
						<time>2023-07-03T06:58:24Z</time>
					</trkpt>
					<trkpt lat="48.013030" lon="6.563870">
						<ele>498</ele>
						<time>2023-07-03T06:58:29Z</time>
					</trkpt>
					<trkpt lat="48.012910" lon="6.563740">
						<ele>499</ele>
						<time>2023-07-03T06:58:32Z</time>
					</trkpt>
					<trkpt lat="48.011970" lon="6.563020">
						<ele>507</ele>
						<time>2023-07-03T06:58:50Z</time>
					</trkpt>
					<trkpt lat="48.011820" lon="6.562960">
						<ele>508</ele>
						<time>2023-07-03T06:58:53Z</time>
					</trkpt>
					<trkpt lat="48.011040" lon="6.562800">
						<ele>512</ele>
						<time>2023-07-03T06:59:07Z</time>
					</trkpt>
					<trkpt lat="48.010560" lon="6.562790">
						<ele>518</ele>
						<time>2023-07-03T06:59:16Z</time>
					</trkpt>
					<trkpt lat="48.010330" lon="6.562820">
						<ele>522</ele>
						<time>2023-07-03T06:59:20Z</time>
					</trkpt>
					<trkpt lat="48.010210" lon="6.562760">
						<ele>523</ele>
						<time>2023-07-03T06:59:22Z</time>
					</trkpt>
					<trkpt lat="48.010110" lon="6.562650">
						<ele>523</ele>
						<time>2023-07-03T06:59:24Z</time>
					</trkpt>
					<trkpt lat="48.010020" lon="6.562470">
						<ele>521</ele>
						<time>2023-07-03T06:59:27Z</time>
					</trkpt>
					<trkpt lat="48.009820" lon="6.561960">
						<ele>517</ele>
						<time>2023-07-03T06:59:34Z</time>
					</trkpt>
					<trkpt lat="48.009730" lon="6.561830">
						<ele>517</ele>
						<time>2023-07-03T06:59:36Z</time>
					</trkpt>
					<trkpt lat="48.009620" lon="6.561700">
						<ele>518</ele>
						<time>2023-07-03T06:59:39Z</time>
					</trkpt>
					<trkpt lat="48.009250" lon="6.561370">
						<ele>523</ele>
						<time>2023-07-03T06:59:46Z</time>
					</trkpt>
					<trkpt lat="48.009040" lon="6.561090">
						<ele>525</ele>
						<time>2023-07-03T06:59:51Z</time>
					</trkpt>
					<trkpt lat="48.008890" lon="6.560850">
						<ele>526</ele>
						<time>2023-07-03T06:59:55Z</time>
					</trkpt>
					<trkpt lat="48.008800" lon="6.560660">
						<ele>526</ele>
						<time>2023-07-03T06:59:58Z</time>
					</trkpt>
					<trkpt lat="48.008710" lon="6.560430">
						<ele>526</ele>
						<time>2023-07-03T07:00:01Z</time>
					</trkpt>
					<trkpt lat="48.008560" lon="6.559900">
						<ele>525</ele>
						<time>2023-07-03T07:00:08Z</time>
					</trkpt>
					<trkpt lat="48.008500" lon="6.559770">
						<ele>524</ele>
						<time>2023-07-03T07:00:10Z</time>
					</trkpt>
					<trkpt lat="48.008340" lon="6.559520">
						<ele>525</ele>
						<time>2023-07-03T07:00:14Z</time>
					</trkpt>
					<trkpt lat="48.008010" lon="6.559140">
						<ele>527</ele>
						<time>2023-07-03T07:00:21Z</time>
					</trkpt>
					<trkpt lat="48.007860" lon="6.559000">
						<ele>528</ele>
						<time>2023-07-03T07:00:25Z</time>
					</trkpt>
					<trkpt lat="48.007630" lon="6.558830">
						<ele>530</ele>
						<time>2023-07-03T07:00:29Z</time>
					</trkpt>
					<trkpt lat="48.007520" lon="6.558790">
						<ele>532</ele>
						<time>2023-07-03T07:00:31Z</time>
					</trkpt>
					<trkpt lat="48.007350" lon="6.558790">
						<ele>533</ele>
						<time>2023-07-03T07:00:34Z</time>
					</trkpt>
					<trkpt lat="48.006610" lon="6.558920">
						<ele>541</ele>
						<time>2023-07-03T07:00:47Z</time>
					</trkpt>
					<trkpt lat="48.006450" lon="6.558890">
						<ele>546</ele>
						<time>2023-07-03T07:00:50Z</time>
					</trkpt>
					<trkpt lat="48.006310" lon="6.558810">
						<ele>549</ele>
						<time>2023-07-03T07:00:53Z</time>
					</trkpt>
					<trkpt lat="48.006180" lon="6.558700">
						<ele>550</ele>
						<time>2023-07-03T07:00:56Z</time>
					</trkpt>
					<trkpt lat="48.006040" lon="6.558490">
						<ele>550</ele>
						<time>2023-07-03T07:00:59Z</time>
					</trkpt>
					<trkpt lat="48.005480" lon="6.557450">
						<ele>544</ele>
						<time>2023-07-03T07:01:15Z</time>
					</trkpt>
					<trkpt lat="48.005330" lon="6.557190">
						<ele>544</ele>
						<time>2023-07-03T07:01:19Z</time>
					</trkpt>
					<trkpt lat="48.005250" lon="6.557090">
						<ele>545</ele>
						<time>2023-07-03T07:01:21Z</time>
					</trkpt>
					<trkpt lat="48.005120" lon="6.556990">
						<ele>546</ele>
						<time>2023-07-03T07:01:24Z</time>
					</trkpt>
					<trkpt lat="48.004750" lon="6.556770">
						<ele>546</ele>
						<time>2023-07-03T07:01:31Z</time>
					</trkpt>
					<trkpt lat="48.004510" lon="6.556580">
						<ele>546</ele>
						<time>2023-07-03T07:01:36Z</time>
					</trkpt>
					<trkpt lat="48.002820" lon="6.555050">
						<ele>556</ele>
						<time>2023-07-03T07:02:11Z</time>
					</trkpt>
					<trkpt lat="48.003000" lon="6.554640">
						<ele>549</ele>
						<time>2023-07-03T07:02:17Z</time>
					</trkpt>
					<trkpt lat="48.003240" lon="6.554130">
						<ele>545</ele>
						<time>2023-07-03T07:02:24Z</time>
					</trkpt>
					<trkpt lat="48.003310" lon="6.553900">
						<ele>545</ele>
						<time>2023-07-03T07:02:27Z</time>
					</trkpt>
					<trkpt lat="48.003350" lon="6.553650">
						<ele>545</ele>
						<time>2023-07-03T07:02:30Z</time>
					</trkpt>
					<trkpt lat="48.003350" lon="6.553380">
						<ele>546</ele>
						<time>2023-07-03T07:02:33Z</time>
					</trkpt>
					<trkpt lat="48.003330" lon="6.553250">
						<ele>546</ele>
						<time>2023-07-03T07:02:35Z</time>
					</trkpt>
					<trkpt lat="48.003350" lon="6.553080">
						<ele>546</ele>
						<time>2023-07-03T07:02:37Z</time>
					</trkpt>
					<trkpt lat="48.003360" lon="6.552690">
						<ele>547</ele>
						<time>2023-07-03T07:02:42Z</time>
					</trkpt>
					<trkpt lat="48.003410" lon="6.552600">
						<ele>547</ele>
						<time>2023-07-03T07:02:43Z</time>
					</trkpt>
					<trkpt lat="48.003430" lon="6.552480">
						<ele>547</ele>
						<time>2023-07-03T07:02:44Z</time>
					</trkpt>
					<trkpt lat="48.003410" lon="6.552370">
						<ele>547</ele>
						<time>2023-07-03T07:02:46Z</time>
					</trkpt>
					<trkpt lat="48.003380" lon="6.552290">
						<ele>547</ele>
						<time>2023-07-03T07:02:47Z</time>
					</trkpt>
					<trkpt lat="48.003340" lon="6.552220">
						<ele>547</ele>
						<time>2023-07-03T07:02:48Z</time>
					</trkpt>
					<trkpt lat="48.003280" lon="6.552180">
						<ele>547</ele>
						<time>2023-07-03T07:02:49Z</time>
					</trkpt>
					<trkpt lat="48.003300" lon="6.552120">
						<ele>547</ele>
						<time>2023-07-03T07:02:50Z</time>
					</trkpt>
					<trkpt lat="48.003400" lon="6.551530">
						<ele>547</ele>
						<time>2023-07-03T07:02:57Z</time>
					</trkpt>
					<trkpt lat="48.003440" lon="6.551390">
						<ele>547</ele>
						<time>2023-07-03T07:02:59Z</time>
					</trkpt>
					<trkpt lat="48.003560" lon="6.551140">
						<ele>547</ele>
						<time>2023-07-03T07:03:03Z</time>
					</trkpt>
					<trkpt lat="48.004560" lon="6.549280">
						<ele>546</ele>
						<time>2023-07-03T07:03:31Z</time>
					</trkpt>
					<trkpt lat="48.005120" lon="6.547990">
						<ele>549</ele>
						<time>2023-07-03T07:03:49Z</time>
					</trkpt>
					<trkpt lat="48.005380" lon="6.547460">
						<ele>551</ele>
						<time>2023-07-03T07:03:57Z</time>
					</trkpt>
					<trkpt lat="48.005740" lon="6.546820">
						<ele>552</ele>
						<time>2023-07-03T07:04:07Z</time>
					</trkpt>
					<trkpt lat="48.005930" lon="6.546600">
						<ele>553</ele>
						<time>2023-07-03T07:04:11Z</time>
					</trkpt>
					<trkpt lat="48.006160" lon="6.546450">
						<ele>554</ele>
						<time>2023-07-03T07:04:16Z</time>
					</trkpt>
					<trkpt lat="48.006790" lon="6.546150">
						<ele>556</ele>
						<time>2023-07-03T07:04:28Z</time>
					</trkpt>
					<trkpt lat="48.006900" lon="6.546070">
						<ele>557</ele>
						<time>2023-07-03T07:04:30Z</time>
					</trkpt>
					<trkpt lat="48.007010" lon="6.545960">
						<ele>558</ele>
						<time>2023-07-03T07:04:32Z</time>
					</trkpt>
					<trkpt lat="48.007180" lon="6.545740">
						<ele>559</ele>
						<time>2023-07-03T07:04:36Z</time>
					</trkpt>
					<trkpt lat="48.007880" lon="6.544690">
						<ele>565</ele>
						<time>2023-07-03T07:04:54Z</time>
					</trkpt>
					<trkpt lat="48.008280" lon="6.544150">
						<ele>567</ele>
						<time>2023-07-03T07:05:03Z</time>
					</trkpt>
					<trkpt lat="48.008360" lon="6.544020">
						<ele>567</ele>
						<time>2023-07-03T07:05:06Z</time>
					</trkpt>
					<trkpt lat="48.008420" lon="6.543860">
						<ele>566</ele>
						<time>2023-07-03T07:05:08Z</time>
					</trkpt>
					<trkpt lat="48.008430" lon="6.543690">
						<ele>565</ele>
						<time>2023-07-03T07:05:10Z</time>
					</trkpt>
					<trkpt lat="48.008420" lon="6.543520">
						<ele>563</ele>
						<time>2023-07-03T07:05:12Z</time>
					</trkpt>
					<trkpt lat="48.008380" lon="6.543350">
						<ele>561</ele>
						<time>2023-07-03T07:05:14Z</time>
					</trkpt>
					<trkpt lat="48.008300" lon="6.543130">
						<ele>560</ele>
						<time>2023-07-03T07:05:17Z</time>
					</trkpt>
					<trkpt lat="48.008260" lon="6.543020">
						<ele>560</ele>
						<time>2023-07-03T07:05:18Z</time>
					</trkpt>
					<trkpt lat="48.007520" lon="6.541490">
						<ele>561</ele>
						<time>2023-07-03T07:05:41Z</time>
					</trkpt>
					<trkpt lat="48.007440" lon="6.541250">
						<ele>562</ele>
						<time>2023-07-03T07:05:44Z</time>
					</trkpt>
					<trkpt lat="48.006910" lon="6.540920">
						<ele>564</ele>
						<time>2023-07-03T07:05:54Z</time>
					</trkpt>
					<trkpt lat="48.006760" lon="6.540630">
						<ele>565</ele>
						<time>2023-07-03T07:05:59Z</time>
					</trkpt>
					<trkpt lat="48.006370" lon="6.540110">
						<ele>565</ele>
						<time>2023-07-03T07:06:08Z</time>
					</trkpt>
					<trkpt lat="48.006220" lon="6.539850">
						<ele>564</ele>
						<time>2023-07-03T07:06:12Z</time>
					</trkpt>
					<trkpt lat="48.006040" lon="6.539420">
						<ele>561</ele>
						<time>2023-07-03T07:06:18Z</time>
					</trkpt>
					<trkpt lat="48.005640" lon="6.538140">
						<ele>558</ele>
						<time>2023-07-03T07:06:35Z</time>
					</trkpt>
					<trkpt lat="48.005510" lon="6.537900">
						<ele>559</ele>
						<time>2023-07-03T07:06:39Z</time>
					</trkpt>
					<trkpt lat="48.005370" lon="6.537580">
						<ele>560</ele>
						<time>2023-07-03T07:06:43Z</time>
					</trkpt>
					<trkpt lat="48.005240" lon="6.536970">
						<ele>560</ele>
						<time>2023-07-03T07:06:51Z</time>
					</trkpt>
					<trkpt lat="48.005050" lon="6.536460">
						<ele>560</ele>
						<time>2023-07-03T07:06:58Z</time>
					</trkpt>
					<trkpt lat="48.005010" lon="6.536300">
						<ele>560</ele>
						<time>2023-07-03T07:07:00Z</time>
					</trkpt>
					<trkpt lat="48.004860" lon="6.535860">
						<ele>559</ele>
						<time>2023-07-03T07:07:06Z</time>
					</trkpt>
					<trkpt lat="48.004780" lon="6.535560">
						<ele>559</ele>
						<time>2023-07-03T07:07:09Z</time>
					</trkpt>
					<trkpt lat="48.004720" lon="6.535000">
						<ele>559</ele>
						<time>2023-07-03T07:07:16Z</time>
					</trkpt>
					<trkpt lat="48.004630" lon="6.534660">
						<ele>558</ele>
						<time>2023-07-03T07:07:21Z</time>
					</trkpt>
					<trkpt lat="48.004550" lon="6.534520">
						<ele>559</ele>
						<time>2023-07-03T07:07:23Z</time>
					</trkpt>
					<trkpt lat="48.004400" lon="6.534430">
						<ele>559</ele>
						<time>2023-07-03T07:07:26Z</time>
					</trkpt>
					<trkpt lat="48.004280" lon="6.534240">
						<ele>559</ele>
						<time>2023-07-03T07:07:29Z</time>
					</trkpt>
					<trkpt lat="48.004240" lon="6.533790">
						<ele>559</ele>
						<time>2023-07-03T07:07:34Z</time>
					</trkpt>
					<trkpt lat="48.004190" lon="6.533500">
						<ele>558</ele>
						<time>2023-07-03T07:07:38Z</time>
					</trkpt>
					<trkpt lat="48.004010" lon="6.533190">
						<ele>559</ele>
						<time>2023-07-03T07:07:43Z</time>
					</trkpt>
					<trkpt lat="48.003580" lon="6.532230">
						<ele>558</ele>
						<time>2023-07-03T07:07:56Z</time>
					</trkpt>
					<trkpt lat="48.002810" lon="6.530890">
						<ele>557</ele>
						<time>2023-07-03T07:08:17Z</time>
					</trkpt>
					<trkpt lat="48.002770" lon="6.530670">
						<ele>558</ele>
						<time>2023-07-03T07:08:20Z</time>
					</trkpt>
					<trkpt lat="48.002840" lon="6.530770">
						<ele>557</ele>
						<time>2023-07-03T07:08:22Z</time>
					</trkpt>
					<trkpt lat="48.002920" lon="6.530770">
						<ele>556</ele>
						<time>2023-07-03T07:08:23Z</time>
					</trkpt>
					<trkpt lat="48.003110" lon="6.530610">
						<ele>554</ele>
						<time>2023-07-03T07:08:27Z</time>
					</trkpt>
					<trkpt lat="48.003170" lon="6.530530">
						<ele>554</ele>
						<time>2023-07-03T07:08:29Z</time>
					</trkpt>
					<trkpt lat="48.003290" lon="6.530540">
						<ele>553</ele>
						<time>2023-07-03T07:08:31Z</time>
					</trkpt>
					<trkpt lat="48.003540" lon="6.530630">
						<ele>552</ele>
						<time>2023-07-03T07:08:35Z</time>
					</trkpt>
					<trkpt lat="48.003690" lon="6.530650">
						<ele>553</ele>
						<time>2023-07-03T07:08:38Z</time>
					</trkpt>
					<trkpt lat="48.003950" lon="6.530510">
						<ele>553</ele>
						<time>2023-07-03T07:08:43Z</time>
					</trkpt>
					<trkpt lat="48.004480" lon="6.530350">
						<ele>551</ele>
						<time>2023-07-03T07:08:52Z</time>
					</trkpt>
					<trkpt lat="48.005000" lon="6.530410">
						<ele>550</ele>
						<time>2023-07-03T07:09:02Z</time>
					</trkpt>
					<trkpt lat="48.005380" lon="6.530630">
						<ele>550</ele>
						<time>2023-07-03T07:09:09Z</time>
					</trkpt>
					<trkpt lat="48.005510" lon="6.530680">
						<ele>549</ele>
						<time>2023-07-03T07:09:11Z</time>
					</trkpt>
					<trkpt lat="48.005810" lon="6.530730">
						<ele>547</ele>
						<time>2023-07-03T07:09:17Z</time>
					</trkpt>
					<trkpt lat="48.006090" lon="6.530710">
						<ele>547</ele>
						<time>2023-07-03T07:09:22Z</time>
					</trkpt>
					<trkpt lat="48.006320" lon="6.530790">
						<ele>548</ele>
						<time>2023-07-03T07:09:26Z</time>
					</trkpt>
					<trkpt lat="48.006770" lon="6.531140">
						<ele>547</ele>
						<time>2023-07-03T07:09:35Z</time>
					</trkpt>
					<trkpt lat="48.007360" lon="6.531500">
						<ele>538</ele>
						<time>2023-07-03T07:09:46Z</time>
					</trkpt>
					<trkpt lat="48.007930" lon="6.531760">
						<ele>531</ele>
						<time>2023-07-03T07:09:57Z</time>
					</trkpt>
					<trkpt lat="48.008320" lon="6.531920">
						<ele>528</ele>
						<time>2023-07-03T07:10:04Z</time>
					</trkpt>
					<trkpt lat="48.008560" lon="6.532070">
						<ele>528</ele>
						<time>2023-07-03T07:10:09Z</time>
					</trkpt>
					<trkpt lat="48.008740" lon="6.532210">
						<ele>529</ele>
						<time>2023-07-03T07:10:12Z</time>
					</trkpt>
					<trkpt lat="48.008870" lon="6.532270">
						<ele>529</ele>
						<time>2023-07-03T07:10:15Z</time>
					</trkpt>
					<trkpt lat="48.009010" lon="6.532220">
						<ele>529</ele>
						<time>2023-07-03T07:10:17Z</time>
					</trkpt>
					<trkpt lat="48.009380" lon="6.531890">
						<ele>528</ele>
						<time>2023-07-03T07:10:25Z</time>
					</trkpt>
					<trkpt lat="48.009640" lon="6.531800">
						<ele>528</ele>
						<time>2023-07-03T07:10:30Z</time>
					</trkpt>
					<trkpt lat="48.010000" lon="6.531810">
						<ele>528</ele>
						<time>2023-07-03T07:10:36Z</time>
					</trkpt>
					<trkpt lat="48.010480" lon="6.531900">
						<ele>526</ele>
						<time>2023-07-03T07:10:45Z</time>
					</trkpt>
					<trkpt lat="48.010590" lon="6.531960">
						<ele>526</ele>
						<time>2023-07-03T07:10:47Z</time>
					</trkpt>
					<trkpt lat="48.010830" lon="6.532170">
						<ele>526</ele>
						<time>2023-07-03T07:10:52Z</time>
					</trkpt>
					<trkpt lat="48.010910" lon="6.532260">
						<ele>526</ele>
						<time>2023-07-03T07:10:54Z</time>
					</trkpt>
					<trkpt lat="48.011060" lon="6.532360">
						<ele>526</ele>
						<time>2023-07-03T07:10:56Z</time>
					</trkpt>
					<trkpt lat="48.011190" lon="6.532410">
						<ele>525</ele>
						<time>2023-07-03T07:10:59Z</time>
					</trkpt>
					<trkpt lat="48.011540" lon="6.532460">
						<ele>524</ele>
						<time>2023-07-03T07:11:05Z</time>
					</trkpt>
					<trkpt lat="48.011940" lon="6.532470">
						<ele>522</ele>
						<time>2023-07-03T07:11:12Z</time>
					</trkpt>
					<trkpt lat="48.012200" lon="6.532440">
						<ele>521</ele>
						<time>2023-07-03T07:11:17Z</time>
					</trkpt>
					<trkpt lat="48.012290" lon="6.532510">
						<ele>520</ele>
						<time>2023-07-03T07:11:19Z</time>
					</trkpt>
					<trkpt lat="48.012490" lon="6.532890">
						<ele>521</ele>
						<time>2023-07-03T07:11:24Z</time>
					</trkpt>
					<trkpt lat="48.012740" lon="6.532380">
						<ele>517</ele>
						<time>2023-07-03T07:11:32Z</time>
					</trkpt>
					<trkpt lat="48.012900" lon="6.531850">
						<ele>516</ele>
						<time>2023-07-03T07:11:39Z</time>
					</trkpt>
					<trkpt lat="48.013080" lon="6.531450">
						<ele>515</ele>
						<time>2023-07-03T07:11:45Z</time>
					</trkpt>
					<trkpt lat="48.013500" lon="6.530740">
						<ele>514</ele>
						<time>2023-07-03T07:11:56Z</time>
					</trkpt>
					<trkpt lat="48.013620" lon="6.530890">
						<ele>514</ele>
						<time>2023-07-03T07:11:59Z</time>
					</trkpt>
					<trkpt lat="48.013750" lon="6.531120">
						<ele>514</ele>
						<time>2023-07-03T07:12:02Z</time>
					</trkpt>
					<trkpt lat="48.013920" lon="6.531490">
						<ele>513</ele>
						<time>2023-07-03T07:12:08Z</time>
					</trkpt>
					<trkpt lat="48.014170" lon="6.531710">
						<ele>512</ele>
						<time>2023-07-03T07:12:13Z</time>
					</trkpt>
					<trkpt lat="48.014300" lon="6.531770">
						<ele>513</ele>
						<time>2023-07-03T07:12:15Z</time>
					</trkpt>
					<trkpt lat="48.014440" lon="6.531880">
						<ele>513</ele>
						<time>2023-07-03T07:12:18Z</time>
					</trkpt>
					<trkpt lat="48.014620" lon="6.532210">
						<ele>513</ele>
						<time>2023-07-03T07:12:23Z</time>
					</trkpt>
					<trkpt lat="48.014810" lon="6.532320">
						<ele>513</ele>
						<time>2023-07-03T07:12:27Z</time>
					</trkpt>
					<trkpt lat="48.014910" lon="6.532350">
						<ele>513</ele>
						<time>2023-07-03T07:12:29Z</time>
					</trkpt>
					<trkpt lat="48.014970" lon="6.532330">
						<ele>513</ele>
						<time>2023-07-03T07:12:30Z</time>
					</trkpt>
					<trkpt lat="48.015030" lon="6.532280">
						<ele>513</ele>
						<time>2023-07-03T07:12:31Z</time>
					</trkpt>
					<trkpt lat="48.015120" lon="6.531920">
						<ele>516</ele>
						<time>2023-07-03T07:12:35Z</time>
					</trkpt>
					<trkpt lat="48.015160" lon="6.531880">
						<ele>516</ele>
						<time>2023-07-03T07:12:36Z</time>
					</trkpt>
					<trkpt lat="48.015230" lon="6.531850">
						<ele>516</ele>
						<time>2023-07-03T07:12:38Z</time>
					</trkpt>
					<trkpt lat="48.015330" lon="6.531850">
						<ele>516</ele>
						<time>2023-07-03T07:12:39Z</time>
					</trkpt>
					<trkpt lat="48.015750" lon="6.531970">
						<ele>516</ele>
						<time>2023-07-03T07:12:47Z</time>
					</trkpt>
					<trkpt lat="48.015930" lon="6.531970">
						<ele>515</ele>
						<time>2023-07-03T07:12:50Z</time>
					</trkpt>
					<trkpt lat="48.016220" lon="6.531840">
						<ele>515</ele>
						<time>2023-07-03T07:12:56Z</time>
					</trkpt>
					<trkpt lat="48.017610" lon="6.531320">
						<ele>519</ele>
						<time>2023-07-03T07:13:21Z</time>
					</trkpt>
					<trkpt lat="48.018020" lon="6.531230">
						<ele>519</ele>
						<time>2023-07-03T07:13:28Z</time>
					</trkpt>
					<trkpt lat="48.018510" lon="6.531160">
						<ele>517</ele>
						<time>2023-07-03T07:13:37Z</time>
					</trkpt>
					<trkpt lat="48.018860" lon="6.530980">
						<ele>516</ele>
						<time>2023-07-03T07:13:44Z</time>
					</trkpt>
					<trkpt lat="48.019450" lon="6.530630">
						<ele>515</ele>
						<time>2023-07-03T07:13:55Z</time>
					</trkpt>
					<trkpt lat="48.019800" lon="6.530530">
						<ele>513</ele>
						<time>2023-07-03T07:14:01Z</time>
					</trkpt>
					<trkpt lat="48.019720" lon="6.531070">
						<ele>509</ele>
						<time>2023-07-03T07:14:08Z</time>
					</trkpt>
					<trkpt lat="48.019640" lon="6.531380">
						<ele>507</ele>
						<time>2023-07-03T07:14:12Z</time>
					</trkpt>
					<trkpt lat="48.019310" lon="6.532260">
						<ele>502</ele>
						<time>2023-07-03T07:14:24Z</time>
					</trkpt>
					<trkpt lat="48.019280" lon="6.532460">
						<ele>501</ele>
						<time>2023-07-03T07:14:26Z</time>
					</trkpt>
					<trkpt lat="48.019520" lon="6.533460">
						<ele>502</ele>
						<time>2023-07-03T07:14:39Z</time>
					</trkpt>
					<trkpt lat="48.019530" lon="6.533590">
						<ele>503</ele>
						<time>2023-07-03T07:14:41Z</time>
					</trkpt>
					<trkpt lat="48.019810" lon="6.533460">
						<ele>502</ele>
						<time>2023-07-03T07:14:46Z</time>
					</trkpt>
					<trkpt lat="48.019950" lon="6.533460">
						<ele>502</ele>
						<time>2023-07-03T07:14:48Z</time>
					</trkpt>
					<trkpt lat="48.020120" lon="6.533510">
						<ele>503</ele>
						<time>2023-07-03T07:14:51Z</time>
					</trkpt>
					<trkpt lat="48.020220" lon="6.533600">
						<ele>505</ele>
						<time>2023-07-03T07:14:53Z</time>
					</trkpt>
					<trkpt lat="48.020260" lon="6.533910">
						<ele>507</ele>
						<time>2023-07-03T07:14:57Z</time>
					</trkpt>
					<trkpt lat="48.020360" lon="6.534180">
						<ele>509</ele>
						<time>2023-07-03T07:15:01Z</time>
					</trkpt>
					<trkpt lat="48.020500" lon="6.534410">
						<ele>511</ele>
						<time>2023-07-03T07:15:05Z</time>
					</trkpt>
					<trkpt lat="48.020680" lon="6.534520">
						<ele>512</ele>
						<time>2023-07-03T07:15:08Z</time>
					</trkpt>
					<trkpt lat="48.021840" lon="6.534690">
						<ele>508</ele>
						<time>2023-07-03T07:15:29Z</time>
					</trkpt>
					<trkpt lat="48.021970" lon="6.534630">
						<ele>508</ele>
						<time>2023-07-03T07:15:31Z</time>
					</trkpt>
					<trkpt lat="48.022130" lon="6.534530">
						<ele>507</ele>
						<time>2023-07-03T07:15:34Z</time>
					</trkpt>
					<trkpt lat="48.022290" lon="6.534400">
						<ele>506</ele>
						<time>2023-07-03T07:15:37Z</time>
					</trkpt>
					<trkpt lat="48.022400" lon="6.534270">
						<ele>506</ele>
						<time>2023-07-03T07:15:40Z</time>
					</trkpt>
					<trkpt lat="48.022530" lon="6.534190">
						<ele>505</ele>
						<time>2023-07-03T07:15:42Z</time>
					</trkpt>
					<trkpt lat="48.022640" lon="6.534170">
						<ele>503</ele>
						<time>2023-07-03T07:15:44Z</time>
					</trkpt>
					<trkpt lat="48.022750" lon="6.534190">
						<ele>502</ele>
						<time>2023-07-03T07:15:46Z</time>
					</trkpt>
					<trkpt lat="48.022870" lon="6.534250">
						<ele>500</ele>
						<time>2023-07-03T07:15:49Z</time>
					</trkpt>
					<trkpt lat="48.023080" lon="6.534440">
						<ele>497</ele>
						<time>2023-07-03T07:15:53Z</time>
					</trkpt>
					<trkpt lat="48.023150" lon="6.534570">
						<ele>496</ele>
						<time>2023-07-03T07:15:55Z</time>
					</trkpt>
					<trkpt lat="48.023600" lon="6.535700">
						<ele>491</ele>
						<time>2023-07-03T07:16:11Z</time>
					</trkpt>
					<trkpt lat="48.023710" lon="6.535930">
						<ele>491</ele>
						<time>2023-07-03T07:16:14Z</time>
					</trkpt>
					<trkpt lat="48.023800" lon="6.536060">
						<ele>491</ele>
						<time>2023-07-03T07:16:16Z</time>
					</trkpt>
					<trkpt lat="48.023850" lon="6.536220">
						<ele>490</ele>
						<time>2023-07-03T07:16:18Z</time>
					</trkpt>
					<trkpt lat="48.023890" lon="6.536510">
						<ele>490</ele>
						<time>2023-07-03T07:16:22Z</time>
					</trkpt>
					<trkpt lat="48.024040" lon="6.536440">
						<ele>490</ele>
						<time>2023-07-03T07:16:25Z</time>
					</trkpt>
					<trkpt lat="48.024140" lon="6.536370">
						<ele>490</ele>
						<time>2023-07-03T07:16:27Z</time>
					</trkpt>
					<trkpt lat="48.024220" lon="6.536280">
						<ele>490</ele>
						<time>2023-07-03T07:16:28Z</time>
					</trkpt>
					<trkpt lat="48.024670" lon="6.535630">
						<ele>493</ele>
						<time>2023-07-03T07:16:40Z</time>
					</trkpt>
					<trkpt lat="48.024790" lon="6.535390">
						<ele>494</ele>
						<time>2023-07-03T07:16:43Z</time>
					</trkpt>
					<trkpt lat="48.024930" lon="6.535010">
						<ele>497</ele>
						<time>2023-07-03T07:16:48Z</time>
					</trkpt>
					<trkpt lat="48.024980" lon="6.534950">
						<ele>498</ele>
						<time>2023-07-03T07:16:49Z</time>
					</trkpt>
					<trkpt lat="48.024590" lon="6.534190">
						<ele>501</ele>
						<time>2023-07-03T07:17:01Z</time>
					</trkpt>
					<trkpt lat="48.024550" lon="6.534040">
						<ele>502</ele>
						<time>2023-07-03T07:17:03Z</time>
					</trkpt>
					<trkpt lat="48.024520" lon="6.533800">
						<ele>503</ele>
						<time>2023-07-03T07:17:06Z</time>
					</trkpt>
					<trkpt lat="48.024690" lon="6.531870">
						<ele>520</ele>
						<time>2023-07-03T07:17:29Z</time>
					</trkpt>
					<trkpt lat="48.024750" lon="6.531350">
						<ele>524</ele>
						<time>2023-07-03T07:17:35Z</time>
					</trkpt>
					<trkpt lat="48.024810" lon="6.531250">
						<ele>525</ele>
						<time>2023-07-03T07:17:37Z</time>
					</trkpt>
					<trkpt lat="48.024850" lon="6.531240">
						<ele>526</ele>
						<time>2023-07-03T07:17:37Z</time>
					</trkpt>
					<trkpt lat="48.024910" lon="6.531290">
						<ele>527</ele>
						<time>2023-07-03T07:17:39Z</time>
					</trkpt>
					<trkpt lat="48.025150" lon="6.531620">
						<ele>531</ele>
						<time>2023-07-03T07:17:44Z</time>
					</trkpt>
					<trkpt lat="48.025320" lon="6.531980">
						<ele>532</ele>
						<time>2023-07-03T07:17:50Z</time>
					</trkpt>
					<trkpt lat="48.025420" lon="6.532300">
						<ele>533</ele>
						<time>2023-07-03T07:17:54Z</time>
					</trkpt>
					<trkpt lat="48.025570" lon="6.532590">
						<ele>533</ele>
						<time>2023-07-03T07:17:58Z</time>
					</trkpt>
					<trkpt lat="48.025800" lon="6.532830">
						<ele>535</ele>
						<time>2023-07-03T07:18:03Z</time>
					</trkpt>
					<trkpt lat="48.025890" lon="6.532960">
						<ele>535</ele>
						<time>2023-07-03T07:18:05Z</time>
					</trkpt>
					<trkpt lat="48.025970" lon="6.533090">
						<ele>536</ele>
						<time>2023-07-03T07:18:08Z</time>
					</trkpt>
					<trkpt lat="48.026050" lon="6.533500">
						<ele>535</ele>
						<time>2023-07-03T07:18:13Z</time>
					</trkpt>
					<trkpt lat="48.026160" lon="6.534230">
						<ele>533</ele>
						<time>2023-07-03T07:18:22Z</time>
					</trkpt>
					<trkpt lat="48.026340" lon="6.535960">
						<ele>533</ele>
						<time>2023-07-03T07:18:42Z</time>
					</trkpt>
					<trkpt lat="48.026380" lon="6.536150">
						<ele>534</ele>
						<time>2023-07-03T07:18:45Z</time>
					</trkpt>
					<trkpt lat="48.026450" lon="6.536320">
						<ele>536</ele>
						<time>2023-07-03T07:18:47Z</time>
					</trkpt>
					<trkpt lat="48.026610" lon="6.536640">
						<ele>539</ele>
						<time>2023-07-03T07:18:52Z</time>
					</trkpt>
					<trkpt lat="48.026710" lon="6.536770">
						<ele>540</ele>
						<time>2023-07-03T07:18:54Z</time>
					</trkpt>
					<trkpt lat="48.027070" lon="6.537120">
						<ele>534</ele>
						<time>2023-07-03T07:19:02Z</time>
					</trkpt>
					<trkpt lat="48.028270" lon="6.538140">
						<ele>531</ele>
						<time>2023-07-03T07:19:26Z</time>
					</trkpt>
					<trkpt lat="48.028680" lon="6.537160">
						<ele>530</ele>
						<time>2023-07-03T07:19:40Z</time>
					</trkpt>
					<trkpt lat="48.028760" lon="6.536890">
						<ele>529</ele>
						<time>2023-07-03T07:19:44Z</time>
					</trkpt>
					<trkpt lat="48.028800" lon="6.536610">
						<ele>529</ele>
						<time>2023-07-03T07:19:47Z</time>
					</trkpt>
					<trkpt lat="48.028820" lon="6.535970">
						<ele>530</ele>
						<time>2023-07-03T07:19:55Z</time>
					</trkpt>
					<trkpt lat="48.028880" lon="6.535490">
						<ele>530</ele>
						<time>2023-07-03T07:20:01Z</time>
					</trkpt>
					<trkpt lat="48.029410" lon="6.535190">
						<ele>528</ele>
						<time>2023-07-03T07:20:11Z</time>
					</trkpt>
					<trkpt lat="48.029990" lon="6.535030">
						<ele>528</ele>
						<time>2023-07-03T07:20:21Z</time>
					</trkpt>
					<trkpt lat="48.030610" lon="6.534850">
						<ele>528</ele>
						<time>2023-07-03T07:20:32Z</time>
					</trkpt>
					<trkpt lat="48.031000" lon="6.534840">
						<ele>528</ele>
						<time>2023-07-03T07:20:39Z</time>
					</trkpt>
					<trkpt lat="48.031190" lon="6.534970">
						<ele>528</ele>
						<time>2023-07-03T07:20:43Z</time>
					</trkpt>
					<trkpt lat="48.031410" lon="6.535200">
						<ele>529</ele>
						<time>2023-07-03T07:20:48Z</time>
					</trkpt>
					<trkpt lat="48.031600" lon="6.535350">
						<ele>530</ele>
						<time>2023-07-03T07:20:52Z</time>
					</trkpt>
					<trkpt lat="48.031930" lon="6.535210">
						<ele>530</ele>
						<time>2023-07-03T07:20:58Z</time>
					</trkpt>
					<trkpt lat="48.032310" lon="6.535110">
						<ele>530</ele>
						<time>2023-07-03T07:21:05Z</time>
					</trkpt>
					<trkpt lat="48.032710" lon="6.535080">
						<ele>532</ele>
						<time>2023-07-03T07:21:12Z</time>
					</trkpt>
					<trkpt lat="48.032810" lon="6.534430">
						<ele>532</ele>
						<time>2023-07-03T07:21:20Z</time>
					</trkpt>
					<trkpt lat="48.032850" lon="6.534070">
						<ele>532</ele>
						<time>2023-07-03T07:21:24Z</time>
					</trkpt>
					<trkpt lat="48.032820" lon="6.533250">
						<ele>533</ele>
						<time>2023-07-03T07:21:34Z</time>
					</trkpt>
					<trkpt lat="48.032860" lon="6.532580">
						<ele>536</ele>
						<time>2023-07-03T07:21:42Z</time>
					</trkpt>
					<trkpt lat="48.032980" lon="6.532270">
						<ele>539</ele>
						<time>2023-07-03T07:21:46Z</time>
					</trkpt>
					<trkpt lat="48.033010" lon="6.532120">
						<ele>540</ele>
						<time>2023-07-03T07:21:48Z</time>
					</trkpt>
					<trkpt lat="48.032980" lon="6.531320">
						<ele>543</ele>
						<time>2023-07-03T07:21:57Z</time>
					</trkpt>
					<trkpt lat="48.033040" lon="6.530870">
						<ele>546</ele>
						<time>2023-07-03T07:22:03Z</time>
					</trkpt>
					<trkpt lat="48.033000" lon="6.530500">
						<ele>547</ele>
						<time>2023-07-03T07:22:07Z</time>
					</trkpt>
					<trkpt lat="48.032860" lon="6.529560">
						<ele>549</ele>
						<time>2023-07-03T07:22:19Z</time>
					</trkpt>
					<trkpt lat="48.032760" lon="6.527820">
						<ele>551</ele>
						<time>2023-07-03T07:22:40Z</time>
					</trkpt>
					<trkpt lat="48.032700" lon="6.527490">
						<ele>550</ele>
						<time>2023-07-03T07:22:44Z</time>
					</trkpt>
					<trkpt lat="48.032690" lon="6.527410">
						<ele>550</ele>
						<time>2023-07-03T07:22:45Z</time>
					</trkpt>
					<trkpt lat="48.032690" lon="6.527050">
						<ele>548</ele>
						<time>2023-07-03T07:22:49Z</time>
					</trkpt>
					<trkpt lat="48.033200" lon="6.525880">
						<ele>551</ele>
						<time>2023-07-03T07:23:06Z</time>
					</trkpt>
					<trkpt lat="48.033380" lon="6.525760">
						<ele>553</ele>
						<time>2023-07-03T07:23:09Z</time>
					</trkpt>
					<trkpt lat="48.033530" lon="6.525910">
						<ele>555</ele>
						<time>2023-07-03T07:23:12Z</time>
					</trkpt>
					<trkpt lat="48.034040" lon="6.526250">
						<ele>561</ele>
						<time>2023-07-03T07:23:22Z</time>
					</trkpt>
					<trkpt lat="48.034860" lon="6.526650">
						<ele>564</ele>
						<time>2023-07-03T07:23:38Z</time>
					</trkpt>
					<trkpt lat="48.035200" lon="6.526890">
						<ele>566</ele>
						<time>2023-07-03T07:23:44Z</time>
					</trkpt>
					<trkpt lat="48.035630" lon="6.527150">
						<ele>567</ele>
						<time>2023-07-03T07:23:53Z</time>
					</trkpt>
					<trkpt lat="48.036170" lon="6.527520">
						<ele>568</ele>
						<time>2023-07-03T07:24:03Z</time>
					</trkpt>
					<trkpt lat="48.036360" lon="6.527680">
						<ele>569</ele>
						<time>2023-07-03T07:24:07Z</time>
					</trkpt>
					<trkpt lat="48.036460" lon="6.527510">
						<ele>567</ele>
						<time>2023-07-03T07:24:10Z</time>
					</trkpt>
					<trkpt lat="48.037090" lon="6.527020">
						<ele>564</ele>
						<time>2023-07-03T07:24:22Z</time>
					</trkpt>
					<trkpt lat="48.037770" lon="6.526400">
						<ele>559</ele>
						<time>2023-07-03T07:24:36Z</time>
					</trkpt>
					<trkpt lat="48.038360" lon="6.525970">
						<ele>552</ele>
						<time>2023-07-03T07:24:48Z</time>
					</trkpt>
					<trkpt lat="48.039000" lon="6.525580">
						<ele>547</ele>
						<time>2023-07-03T07:25:00Z</time>
					</trkpt>
					<trkpt lat="48.039200" lon="6.525320">
						<ele>544</ele>
						<time>2023-07-03T07:25:05Z</time>
					</trkpt>
					<trkpt lat="48.039530" lon="6.524810">
						<ele>541</ele>
						<time>2023-07-03T07:25:14Z</time>
					</trkpt>
					<trkpt lat="48.039870" lon="6.524420">
						<ele>538</ele>
						<time>2023-07-03T07:25:21Z</time>
					</trkpt>
					<trkpt lat="48.040280" lon="6.523780">
						<ele>536</ele>
						<time>2023-07-03T07:25:32Z</time>
					</trkpt>
					<trkpt lat="48.040640" lon="6.523350">
						<ele>534</ele>
						<time>2023-07-03T07:25:40Z</time>
					</trkpt>
					<trkpt lat="48.040960" lon="6.522750">
						<ele>530</ele>
						<time>2023-07-03T07:25:49Z</time>
					</trkpt>
					<trkpt lat="48.041270" lon="6.522250">
						<ele>526</ele>
						<time>2023-07-03T07:25:57Z</time>
					</trkpt>
					<trkpt lat="48.041730" lon="6.521380">
						<ele>523</ele>
						<time>2023-07-03T07:26:10Z</time>
					</trkpt>
					<trkpt lat="48.042220" lon="6.520580">
						<ele>529</ele>
						<time>2023-07-03T07:26:23Z</time>
					</trkpt>
					<trkpt lat="48.042450" lon="6.520500">
						<ele>528</ele>
						<time>2023-07-03T07:26:27Z</time>
					</trkpt>
					<trkpt lat="48.042650" lon="6.520470">
						<ele>526</ele>
						<time>2023-07-03T07:26:31Z</time>
					</trkpt>
					<trkpt lat="48.042970" lon="6.520230">
						<ele>527</ele>
						<time>2023-07-03T07:26:37Z</time>
					</trkpt>
					<trkpt lat="48.043520" lon="6.519670">
						<ele>530</ele>
						<time>2023-07-03T07:26:49Z</time>
					</trkpt>
					<trkpt lat="48.044160" lon="6.518980">
						<ele>528</ele>
						<time>2023-07-03T07:27:03Z</time>
					</trkpt>
					<trkpt lat="48.044940" lon="6.518380">
						<ele>519</ele>
						<time>2023-07-03T07:27:19Z</time>
					</trkpt>
					<trkpt lat="48.045360" lon="6.517920">
						<ele>519</ele>
						<time>2023-07-03T07:27:28Z</time>
					</trkpt>
					<trkpt lat="48.045540" lon="6.517630">
						<ele>520</ele>
						<time>2023-07-03T07:27:33Z</time>
					</trkpt>
					<trkpt lat="48.045670" lon="6.517550">
						<ele>520</ele>
						<time>2023-07-03T07:27:35Z</time>
					</trkpt>
					<trkpt lat="48.045820" lon="6.517540">
						<ele>518</ele>
						<time>2023-07-03T07:27:38Z</time>
					</trkpt>
					<trkpt lat="48.046790" lon="6.517610">
						<ele>515</ele>
						<time>2023-07-03T07:27:55Z</time>
					</trkpt>
					<trkpt lat="48.047550" lon="6.517540">
						<ele>504</ele>
						<time>2023-07-03T07:28:09Z</time>
					</trkpt>
					<trkpt lat="48.047980" lon="6.518110">
						<ele>496</ele>
						<time>2023-07-03T07:28:19Z</time>
					</trkpt>
					<trkpt lat="48.048250" lon="6.518260">
						<ele>492</ele>
						<time>2023-07-03T07:28:24Z</time>
					</trkpt>
					<trkpt lat="48.048450" lon="6.518310">
						<ele>489</ele>
						<time>2023-07-03T07:28:28Z</time>
					</trkpt>
					<trkpt lat="48.048500" lon="6.518340">
						<ele>489</ele>
						<time>2023-07-03T07:28:29Z</time>
					</trkpt>
					<trkpt lat="48.048590" lon="6.518400">
						<ele>487</ele>
						<time>2023-07-03T07:28:31Z</time>
					</trkpt>
					<trkpt lat="48.048950" lon="6.518640">
						<ele>482</ele>
						<time>2023-07-03T07:28:38Z</time>
					</trkpt>
					<trkpt lat="48.049350" lon="6.518800">
						<ele>478</ele>
						<time>2023-07-03T07:28:45Z</time>
					</trkpt>
					<trkpt lat="48.049770" lon="6.518890">
						<ele>475</ele>
						<time>2023-07-03T07:28:52Z</time>
					</trkpt>
					<trkpt lat="48.050010" lon="6.518840">
						<ele>474</ele>
						<time>2023-07-03T07:28:57Z</time>
					</trkpt>
					<trkpt lat="48.050420" lon="6.518700">
						<ele>472</ele>
						<time>2023-07-03T07:29:04Z</time>
					</trkpt>
					<trkpt lat="48.050700" lon="6.518880">
						<ele>468</ele>
						<time>2023-07-03T07:29:10Z</time>
					</trkpt>
					<trkpt lat="48.051090" lon="6.519170">
						<ele>464</ele>
						<time>2023-07-03T07:29:17Z</time>
					</trkpt>
					<trkpt lat="48.052110" lon="6.519880">
						<ele>455</ele>
						<time>2023-07-03T07:29:37Z</time>
					</trkpt>
					<trkpt lat="48.052670" lon="6.520380">
						<ele>451</ele>
						<time>2023-07-03T07:29:49Z</time>
					</trkpt>
					<trkpt lat="48.053060" lon="6.520650">
						<ele>449</ele>
						<time>2023-07-03T07:29:57Z</time>
					</trkpt>
					<trkpt lat="48.053330" lon="6.520730">
						<ele>449</ele>
						<time>2023-07-03T07:30:02Z</time>
					</trkpt>
					<trkpt lat="48.053700" lon="6.520760">
						<ele>443</ele>
						<time>2023-07-03T07:30:08Z</time>
					</trkpt>
					<trkpt lat="48.054030" lon="6.520730">
						<ele>438</ele>
						<time>2023-07-03T07:30:14Z</time>
					</trkpt>
					<trkpt lat="48.054490" lon="6.520730">
						<ele>430</ele>
						<time>2023-07-03T07:30:22Z</time>
					</trkpt>
					<trkpt lat="48.054610" lon="6.520670">
						<ele>428</ele>
						<time>2023-07-03T07:30:25Z</time>
					</trkpt>
					<trkpt lat="48.054860" lon="6.520470">
						<ele>424</ele>
						<time>2023-07-03T07:30:30Z</time>
					</trkpt>
					<trkpt lat="48.054990" lon="6.520390">
						<ele>421</ele>
						<time>2023-07-03T07:30:32Z</time>
					</trkpt>
					<trkpt lat="48.055040" lon="6.520380">
						<ele>421</ele>
						<time>2023-07-03T07:30:33Z</time>
					</trkpt>
					<trkpt lat="48.055340" lon="6.520920">
						<ele>416</ele>
						<time>2023-07-03T07:30:41Z</time>
					</trkpt>
					<trkpt lat="48.055570" lon="6.521430">
						<ele>415</ele>
						<time>2023-07-03T07:30:49Z</time>
					</trkpt>
					<trkpt lat="48.055640" lon="6.521540">
						<ele>414</ele>
						<time>2023-07-03T07:30:50Z</time>
					</trkpt>
					<trkpt lat="48.055700" lon="6.521600">
						<ele>414</ele>
						<time>2023-07-03T07:30:52Z</time>
					</trkpt>
					<trkpt lat="48.055790" lon="6.521640">
						<ele>414</ele>
						<time>2023-07-03T07:30:53Z</time>
					</trkpt>
					<trkpt lat="48.055870" lon="6.521630">
						<ele>414</ele>
						<time>2023-07-03T07:30:55Z</time>
					</trkpt>
					<trkpt lat="48.056030" lon="6.521540">
						<ele>412</ele>
						<time>2023-07-03T07:30:58Z</time>
					</trkpt>
					<trkpt lat="48.056100" lon="6.521510">
						<ele>411</ele>
						<time>2023-07-03T07:30:59Z</time>
					</trkpt>
					<trkpt lat="48.056190" lon="6.521540">
						<ele>410</ele>
						<time>2023-07-03T07:31:01Z</time>
					</trkpt>
					<trkpt lat="48.056290" lon="6.521960">
						<ele>410</ele>
						<time>2023-07-03T07:31:06Z</time>
					</trkpt>
					<trkpt lat="48.056370" lon="6.522040">
						<ele>409</ele>
						<time>2023-07-03T07:31:08Z</time>
					</trkpt>
					<trkpt lat="48.056530" lon="6.521840">
						<ele>408</ele>
						<time>2023-07-03T07:31:12Z</time>
					</trkpt>
					<trkpt lat="48.056660" lon="6.521750">
						<ele>406</ele>
						<time>2023-07-03T07:31:14Z</time>
					</trkpt>
					<trkpt lat="48.056870" lon="6.521800">
						<ele>406</ele>
						<time>2023-07-03T07:31:18Z</time>
					</trkpt>
					<trkpt lat="48.056890" lon="6.522030">
						<ele>406</ele>
						<time>2023-07-03T07:31:21Z</time>
					</trkpt>
					<trkpt lat="48.057070" lon="6.522740">
						<ele>407</ele>
						<time>2023-07-03T07:31:30Z</time>
					</trkpt>
					<trkpt lat="48.057150" lon="6.523140">
						<ele>408</ele>
						<time>2023-07-03T07:31:35Z</time>
					</trkpt>
					<trkpt lat="48.057170" lon="6.523320">
						<ele>408</ele>
						<time>2023-07-03T07:31:37Z</time>
					</trkpt>
					<trkpt lat="48.057230" lon="6.523340">
						<ele>408</ele>
						<time>2023-07-03T07:31:38Z</time>
					</trkpt>
					<trkpt lat="48.057470" lon="6.523650">
						<ele>409</ele>
						<time>2023-07-03T07:31:44Z</time>
					</trkpt>
					<trkpt lat="48.057830" lon="6.524320">
						<ele>410</ele>
						<time>2023-07-03T07:31:54Z</time>
					</trkpt>
					<trkpt lat="48.058060" lon="6.524660">
						<ele>412</ele>
						<time>2023-07-03T07:31:59Z</time>
					</trkpt>
					<trkpt lat="48.058080" lon="6.524700">
						<ele>412</ele>
						<time>2023-07-03T07:32:00Z</time>
					</trkpt>
					<trkpt lat="48.058400" lon="6.525250">
						<ele>415</ele>
						<time>2023-07-03T07:32:09Z</time>
					</trkpt>
					<trkpt lat="48.058620" lon="6.525380">
						<ele>415</ele>
						<time>2023-07-03T07:32:13Z</time>
					</trkpt>
					<trkpt lat="48.058660" lon="6.525410">
						<ele>415</ele>
						<time>2023-07-03T07:32:14Z</time>
					</trkpt>
					<trkpt lat="48.058860" lon="6.525530">
						<ele>414</ele>
						<time>2023-07-03T07:32:18Z</time>
					</trkpt>
					<trkpt lat="48.059090" lon="6.525750">
						<ele>413</ele>
						<time>2023-07-03T07:32:22Z</time>
					</trkpt>
					<trkpt lat="48.059830" lon="6.527140">
						<ele>415</ele>
						<time>2023-07-03T07:32:44Z</time>
					</trkpt>
					<trkpt lat="48.059970" lon="6.527360">
						<ele>416</ele>
						<time>2023-07-03T07:32:47Z</time>
					</trkpt>
					<trkpt lat="48.060120" lon="6.527440">
						<ele>417</ele>
						<time>2023-07-03T07:32:50Z</time>
					</trkpt>
					<trkpt lat="48.060320" lon="6.527500">
						<ele>419</ele>
						<time>2023-07-03T07:32:54Z</time>
					</trkpt>
					<trkpt lat="48.060480" lon="6.527570">
						<ele>421</ele>
						<time>2023-07-03T07:32:57Z</time>
					</trkpt>
					<trkpt lat="48.060580" lon="6.527680">
						<ele>423</ele>
						<time>2023-07-03T07:32:59Z</time>
					</trkpt>
					<trkpt lat="48.060610" lon="6.527800">
						<ele>425</ele>
						<time>2023-07-03T07:33:00Z</time>
					</trkpt>
					<trkpt lat="48.060700" lon="6.528460">
						<ele>432</ele>
						<time>2023-07-03T07:33:08Z</time>
					</trkpt>
					<trkpt lat="48.060640" lon="6.529160">
						<ele>444</ele>
						<time>2023-07-03T07:33:17Z</time>
					</trkpt>
					<trkpt lat="48.060370" lon="6.530690">
						<ele>466</ele>
						<time>2023-07-03T07:33:36Z</time>
					</trkpt>
					<trkpt lat="48.060330" lon="6.531280">
						<ele>471</ele>
						<time>2023-07-03T07:33:43Z</time>
					</trkpt>
					<trkpt lat="48.060320" lon="6.531720">
						<ele>474</ele>
						<time>2023-07-03T07:33:48Z</time>
					</trkpt>
					<trkpt lat="48.060270" lon="6.532090">
						<ele>477</ele>
						<time>2023-07-03T07:33:52Z</time>
					</trkpt>
					<trkpt lat="48.060160" lon="6.532650">
						<ele>481</ele>
						<time>2023-07-03T07:33:59Z</time>
					</trkpt>
					<trkpt lat="48.059630" lon="6.534640">
						<ele>490</ele>
						<time>2023-07-03T07:34:25Z</time>
					</trkpt>
					<trkpt lat="48.059420" lon="6.535420">
						<ele>492</ele>
						<time>2023-07-03T07:34:35Z</time>
					</trkpt>
					<trkpt lat="48.059320" lon="6.535910">
						<ele>492</ele>
						<time>2023-07-03T07:34:41Z</time>
					</trkpt>
					<trkpt lat="48.059330" lon="6.536030">
						<ele>492</ele>
						<time>2023-07-03T07:34:42Z</time>
					</trkpt>
					<trkpt lat="48.059400" lon="6.536130">
						<ele>492</ele>
						<time>2023-07-03T07:34:44Z</time>
					</trkpt>
					<trkpt lat="48.059970" lon="6.536380">
						<ele>493</ele>
						<time>2023-07-03T07:34:55Z</time>
					</trkpt>
					<trkpt lat="48.060360" lon="6.536610">
						<ele>496</ele>
						<time>2023-07-03T07:35:02Z</time>
					</trkpt>
					<trkpt lat="48.060520" lon="6.536790">
						<ele>499</ele>
						<time>2023-07-03T07:35:06Z</time>
					</trkpt>
					<trkpt lat="48.060650" lon="6.537060">
						<ele>502</ele>
						<time>2023-07-03T07:35:10Z</time>
					</trkpt>
					<trkpt lat="48.060700" lon="6.537620">
						<ele>508</ele>
						<time>2023-07-03T07:35:16Z</time>
					</trkpt>
					<trkpt lat="48.060630" lon="6.538250">
						<ele>513</ele>
						<time>2023-07-03T07:35:24Z</time>
					</trkpt>
					<trkpt lat="48.060480" lon="6.539180">
						<ele>518</ele>
						<time>2023-07-03T07:35:35Z</time>
					</trkpt>
					<trkpt lat="48.060510" lon="6.539450">
						<ele>520</ele>
						<time>2023-07-03T07:35:39Z</time>
					</trkpt>
					<trkpt lat="48.060590" lon="6.539600">
						<ele>521</ele>
						<time>2023-07-03T07:35:41Z</time>
					</trkpt>
					<trkpt lat="48.060840" lon="6.539920">
						<ele>521</ele>
						<time>2023-07-03T07:35:47Z</time>
					</trkpt>
					<trkpt lat="48.060950" lon="6.540150">
						<ele>524</ele>
						<time>2023-07-03T07:35:50Z</time>
					</trkpt>
					<trkpt lat="48.061140" lon="6.540680">
						<ele>528</ele>
						<time>2023-07-03T07:35:57Z</time>
					</trkpt>
					<trkpt lat="48.061220" lon="6.540870">
						<ele>530</ele>
						<time>2023-07-03T07:36:00Z</time>
					</trkpt>
					<trkpt lat="48.061360" lon="6.541010">
						<ele>531</ele>
						<time>2023-07-03T07:36:03Z</time>
					</trkpt>
					<trkpt lat="48.061810" lon="6.541010">
						<ele>532</ele>
						<time>2023-07-03T07:36:11Z</time>
					</trkpt>
					<trkpt lat="48.062070" lon="6.541040">
						<ele>534</ele>
						<time>2023-07-03T07:36:15Z</time>
					</trkpt>
					<trkpt lat="48.062230" lon="6.541110">
						<ele>536</ele>
						<time>2023-07-03T07:36:18Z</time>
					</trkpt>
					<trkpt lat="48.062430" lon="6.541160">
						<ele>537</ele>
						<time>2023-07-03T07:36:22Z</time>
					</trkpt>
					<trkpt lat="48.062860" lon="6.541430">
						<ele>541</ele>
						<time>2023-07-03T07:36:30Z</time>
					</trkpt>
					<trkpt lat="48.063360" lon="6.542010">
						<ele>546</ele>
						<time>2023-07-03T07:36:42Z</time>
					</trkpt>
					<trkpt lat="48.063970" lon="6.542610">
						<ele>552</ele>
						<time>2023-07-03T07:36:55Z</time>
					</trkpt>
					<trkpt lat="48.064400" lon="6.542770">
						<ele>551</ele>
						<time>2023-07-03T07:37:02Z</time>
					</trkpt>
					<trkpt lat="48.064780" lon="6.542770">
						<ele>549</ele>
						<time>2023-07-03T07:37:09Z</time>
					</trkpt>
					<trkpt lat="48.065030" lon="6.542820">
						<ele>547</ele>
						<time>2023-07-03T07:37:14Z</time>
					</trkpt>
					<trkpt lat="48.065380" lon="6.543020">
						<ele>544</ele>
						<time>2023-07-03T07:37:20Z</time>
					</trkpt>
					<trkpt lat="48.065490" lon="6.543170">
						<ele>543</ele>
						<time>2023-07-03T07:37:23Z</time>
					</trkpt>
					<trkpt lat="48.066420" lon="6.543160">
						<ele>537</ele>
						<time>2023-07-03T07:37:40Z</time>
					</trkpt>
					<trkpt lat="48.066600" lon="6.543090">
						<ele>536</ele>
						<time>2023-07-03T07:37:43Z</time>
					</trkpt>
					<trkpt lat="48.067050" lon="6.542720">
						<ele>532</ele>
						<time>2023-07-03T07:37:52Z</time>
					</trkpt>
					<trkpt lat="48.067090" lon="6.542700">
						<ele>532</ele>
						<time>2023-07-03T07:37:53Z</time>
					</trkpt>
					<trkpt lat="48.067400" lon="6.542630">
						<ele>530</ele>
						<time>2023-07-03T07:37:58Z</time>
					</trkpt>
					<trkpt lat="48.067570" lon="6.542490">
						<ele>528</ele>
						<time>2023-07-03T07:38:02Z</time>
					</trkpt>
					<trkpt lat="48.067880" lon="6.541880">
						<ele>526</ele>
						<time>2023-07-03T07:38:11Z</time>
					</trkpt>
					<trkpt lat="48.068110" lon="6.541370">
						<ele>524</ele>
						<time>2023-07-03T07:38:18Z</time>
					</trkpt>
					<trkpt lat="48.068350" lon="6.540980">
						<ele>520</ele>
						<time>2023-07-03T07:38:25Z</time>
					</trkpt>
					<trkpt lat="48.069580" lon="6.539680">
						<ele>519</ele>
						<time>2023-07-03T07:38:51Z</time>
					</trkpt>
					<trkpt lat="48.069950" lon="6.539090">
						<ele>516</ele>
						<time>2023-07-03T07:39:01Z</time>
					</trkpt>
					<trkpt lat="48.069890" lon="6.539390">
						<ele>519</ele>
						<time>2023-07-03T07:39:05Z</time>
					</trkpt>
					<trkpt lat="48.069710" lon="6.540400">
						<ele>526</ele>
						<time>2023-07-03T07:39:17Z</time>
					</trkpt>
					<trkpt lat="48.069440" lon="6.541260">
						<ele>529</ele>
						<time>2023-07-03T07:39:28Z</time>
					</trkpt>
					<trkpt lat="48.069250" lon="6.542100">
						<ele>534</ele>
						<time>2023-07-03T07:39:39Z</time>
					</trkpt>
					<trkpt lat="48.069120" lon="6.542980">
						<ele>537</ele>
						<time>2023-07-03T07:39:50Z</time>
					</trkpt>
					<trkpt lat="48.069140" lon="6.544500">
						<ele>543</ele>
						<time>2023-07-03T07:40:08Z</time>
					</trkpt>
					<trkpt lat="48.069060" lon="6.545240">
						<ele>546</ele>
						<time>2023-07-03T07:40:17Z</time>
					</trkpt>
					<trkpt lat="48.068830" lon="6.546060">
						<ele>548</ele>
						<time>2023-07-03T07:40:27Z</time>
					</trkpt>
					<trkpt lat="48.068490" lon="6.546680">
						<ele>548</ele>
						<time>2023-07-03T07:40:37Z</time>
					</trkpt>
					<trkpt lat="48.068290" lon="6.547630">
						<ele>544</ele>
						<time>2023-07-03T07:40:49Z</time>
					</trkpt>
					<trkpt lat="48.068020" lon="6.548780">
						<ele>534</ele>
						<time>2023-07-03T07:41:03Z</time>
					</trkpt>
					<trkpt lat="48.067860" lon="6.549340">
						<ele>531</ele>
						<time>2023-07-03T07:41:10Z</time>
					</trkpt>
					<trkpt lat="48.067910" lon="6.549870">
						<ele>529</ele>
						<time>2023-07-03T07:41:17Z</time>
					</trkpt>
					<trkpt lat="48.067990" lon="6.550210">
						<ele>527</ele>
						<time>2023-07-03T07:41:21Z</time>
					</trkpt>
					<trkpt lat="48.067960" lon="6.550530">
						<ele>526</ele>
						<time>2023-07-03T07:41:25Z</time>
					</trkpt>
					<trkpt lat="48.067860" lon="6.550870">
						<ele>526</ele>
						<time>2023-07-03T07:41:29Z</time>
					</trkpt>
					<trkpt lat="48.067710" lon="6.551110">
						<ele>527</ele>
						<time>2023-07-03T07:41:33Z</time>
					</trkpt>
					<trkpt lat="48.067480" lon="6.551570">
						<ele>529</ele>
						<time>2023-07-03T07:41:40Z</time>
					</trkpt>
					<trkpt lat="48.067320" lon="6.552080">
						<ele>530</ele>
						<time>2023-07-03T07:41:47Z</time>
					</trkpt>
					<trkpt lat="48.067050" lon="6.552660">
						<ele>532</ele>
						<time>2023-07-03T07:41:55Z</time>
					</trkpt>
					<trkpt lat="48.066790" lon="6.553060">
						<ele>533</ele>
						<time>2023-07-03T07:42:02Z</time>
					</trkpt>
					<trkpt lat="48.066280" lon="6.553980">
						<ele>545</ele>
						<time>2023-07-03T07:42:16Z</time>
					</trkpt>
					<trkpt lat="48.066130" lon="6.554510">
						<ele>551</ele>
						<time>2023-07-03T07:42:23Z</time>
					</trkpt>
					<trkpt lat="48.066150" lon="6.554960">
						<ele>554</ele>
						<time>2023-07-03T07:42:28Z</time>
					</trkpt>
					<trkpt lat="48.066240" lon="6.555370">
						<ele>557</ele>
						<time>2023-07-03T07:42:33Z</time>
					</trkpt>
					<trkpt lat="48.066220" lon="6.555520">
						<ele>560</ele>
						<time>2023-07-03T07:42:35Z</time>
					</trkpt>
					<trkpt lat="48.066070" lon="6.555470">
						<ele>562</ele>
						<time>2023-07-03T07:42:38Z</time>
					</trkpt>
					<trkpt lat="48.065880" lon="6.555450">
						<ele>565</ele>
						<time>2023-07-03T07:42:41Z</time>
					</trkpt>
					<trkpt lat="48.065680" lon="6.555570">
						<ele>569</ele>
						<time>2023-07-03T07:42:45Z</time>
					</trkpt>
					<trkpt lat="48.065420" lon="6.556040">
						<ele>574</ele>
						<time>2023-07-03T07:42:52Z</time>
					</trkpt>
					<trkpt lat="48.064860" lon="6.556910">
						<ele>583</ele>
						<time>2023-07-03T07:43:07Z</time>
					</trkpt>
					<trkpt lat="48.064290" lon="6.557650">
						<ele>592</ele>
						<time>2023-07-03T07:43:20Z</time>
					</trkpt>
					<trkpt lat="48.063890" lon="6.557790">
						<ele>596</ele>
						<time>2023-07-03T07:43:27Z</time>
					</trkpt>
					<trkpt lat="48.063340" lon="6.557860">
						<ele>601</ele>
						<time>2023-07-03T07:43:37Z</time>
					</trkpt>
					<trkpt lat="48.062810" lon="6.557880">
						<ele>602</ele>
						<time>2023-07-03T07:43:47Z</time>
					</trkpt>
					<trkpt lat="48.062440" lon="6.558060">
						<ele>603</ele>
						<time>2023-07-03T07:43:54Z</time>
					</trkpt>
					<trkpt lat="48.062330" lon="6.558180">
						<ele>603</ele>
						<time>2023-07-03T07:43:56Z</time>
					</trkpt>
					<trkpt lat="48.062260" lon="6.558330">
						<ele>602</ele>
						<time>2023-07-03T07:43:58Z</time>
					</trkpt>
					<trkpt lat="48.062220" lon="6.558480">
						<ele>603</ele>
						<time>2023-07-03T07:44:00Z</time>
					</trkpt>
					<trkpt lat="48.062290" lon="6.559180">
						<ele>604</ele>
						<time>2023-07-03T07:44:09Z</time>
					</trkpt>
					<trkpt lat="48.062200" lon="6.559530">
						<ele>605</ele>
						<time>2023-07-03T07:44:13Z</time>
					</trkpt>
					<trkpt lat="48.061520" lon="6.561030">
						<ele>610</ele>
						<time>2023-07-03T07:44:35Z</time>
					</trkpt>
					<trkpt lat="48.061480" lon="6.561170">
						<ele>610</ele>
						<time>2023-07-03T07:44:36Z</time>
					</trkpt>
					<trkpt lat="48.061480" lon="6.561290">
						<ele>611</ele>
						<time>2023-07-03T07:44:38Z</time>
					</trkpt>
					<trkpt lat="48.061560" lon="6.562070">
						<ele>614</ele>
						<time>2023-07-03T07:44:47Z</time>
					</trkpt>
					<trkpt lat="48.061740" lon="6.562690">
						<ele>617</ele>
						<time>2023-07-03T07:44:55Z</time>
					</trkpt>
					<trkpt lat="48.061870" lon="6.563310">
						<ele>619</ele>
						<time>2023-07-03T07:45:03Z</time>
					</trkpt>
					<trkpt lat="48.061880" lon="6.563610">
						<ele>620</ele>
						<time>2023-07-03T07:45:07Z</time>
					</trkpt>
					<trkpt lat="48.061860" lon="6.563980">
						<ele>622</ele>
						<time>2023-07-03T07:45:11Z</time>
					</trkpt>
					<trkpt lat="48.061800" lon="6.564190">
						<ele>622</ele>
						<time>2023-07-03T07:45:14Z</time>
					</trkpt>
					<trkpt lat="48.061700" lon="6.564370">
						<ele>621</ele>
						<time>2023-07-03T07:45:16Z</time>
					</trkpt>
					<trkpt lat="48.061150" lon="6.565190">
						<ele>614</ele>
						<time>2023-07-03T07:45:30Z</time>
					</trkpt>
					<trkpt lat="48.061000" lon="6.565360">
						<ele>612</ele>
						<time>2023-07-03T07:45:34Z</time>
					</trkpt>
					<trkpt lat="48.060900" lon="6.565410">
						<ele>611</ele>
						<time>2023-07-03T07:45:35Z</time>
					</trkpt>
					<trkpt lat="48.060670" lon="6.565550">
						<ele>609</ele>
						<time>2023-07-03T07:45:40Z</time>
					</trkpt>
					<trkpt lat="48.060340" lon="6.565810">
						<ele>606</ele>
						<time>2023-07-03T07:45:47Z</time>
					</trkpt>
					<trkpt lat="48.060250" lon="6.565580">
						<ele>608</ele>
						<time>2023-07-03T07:45:50Z</time>
					</trkpt>
					<trkpt lat="48.059980" lon="6.565230">
						<ele>612</ele>
						<time>2023-07-03T07:45:56Z</time>
					</trkpt>
					<trkpt lat="48.059640" lon="6.564880">
						<ele>616</ele>
						<time>2023-07-03T07:46:03Z</time>
					</trkpt>
					<trkpt lat="48.059310" lon="6.564490">
						<ele>620</ele>
						<time>2023-07-03T07:46:11Z</time>
					</trkpt>
					<trkpt lat="48.059030" lon="6.564410">
						<ele>622</ele>
						<time>2023-07-03T07:46:16Z</time>
					</trkpt>
					<trkpt lat="48.058900" lon="6.564340">
						<ele>624</ele>
						<time>2023-07-03T07:46:18Z</time>
					</trkpt>
					<trkpt lat="48.058610" lon="6.564120">
						<ele>627</ele>
						<time>2023-07-03T07:46:24Z</time>
					</trkpt>
					<trkpt lat="48.058530" lon="6.563930">
						<ele>628</ele>
						<time>2023-07-03T07:46:27Z</time>
					</trkpt>
					<trkpt lat="48.058410" lon="6.563290">
						<ele>628</ele>
						<time>2023-07-03T07:46:35Z</time>
					</trkpt>
					<trkpt lat="48.058270" lon="6.562990">
						<ele>628</ele>
						<time>2023-07-03T07:46:39Z</time>
					</trkpt>
					<trkpt lat="48.058210" lon="6.562920">
						<ele>628</ele>
						<time>2023-07-03T07:46:40Z</time>
					</trkpt>
					<trkpt lat="48.058110" lon="6.562860">
						<ele>629</ele>
						<time>2023-07-03T07:46:42Z</time>
					</trkpt>
					<trkpt lat="48.056310" lon="6.563720">
						<ele>630</ele>
						<time>2023-07-03T07:47:16Z</time>
					</trkpt>
					<trkpt lat="48.055980" lon="6.563760">
						<ele>628</ele>
						<time>2023-07-03T07:47:22Z</time>
					</trkpt>
					<trkpt lat="48.055530" lon="6.563940">
						<ele>626</ele>
						<time>2023-07-03T07:47:30Z</time>
					</trkpt>
					<trkpt lat="48.054270" lon="6.564470">
						<ele>624</ele>
						<time>2023-07-03T07:47:53Z</time>
					</trkpt>
					<trkpt lat="48.053430" lon="6.564920">
						<ele>626</ele>
						<time>2023-07-03T07:48:09Z</time>
					</trkpt>
					<trkpt lat="48.053130" lon="6.565190">
						<ele>626</ele>
						<time>2023-07-03T07:48:16Z</time>
					</trkpt>
					<trkpt lat="48.052570" lon="6.566340">
						<ele>620</ele>
						<time>2023-07-03T07:48:32Z</time>
					</trkpt>
					<trkpt lat="48.052060" lon="6.567040">
						<ele>617</ele>
						<time>2023-07-03T07:48:45Z</time>
					</trkpt>
					<trkpt lat="48.051600" lon="6.567720">
						<ele>613</ele>
						<time>2023-07-03T07:48:56Z</time>
					</trkpt>
					<trkpt lat="48.051160" lon="6.568050">
						<ele>608</ele>
						<time>2023-07-03T07:49:05Z</time>
					</trkpt>
					<trkpt lat="48.050860" lon="6.568200">
						<ele>605</ele>
						<time>2023-07-03T07:49:11Z</time>
					</trkpt>
					<trkpt lat="48.050530" lon="6.568240">
						<ele>601</ele>
						<time>2023-07-03T07:49:17Z</time>
					</trkpt>
					<trkpt lat="48.050090" lon="6.568090">
						<ele>600</ele>
						<time>2023-07-03T07:49:25Z</time>
					</trkpt>
					<trkpt lat="48.049440" lon="6.567800">
						<ele>596</ele>
						<time>2023-07-03T07:49:37Z</time>
					</trkpt>
					<trkpt lat="48.048770" lon="6.567540">
						<ele>592</ele>
						<time>2023-07-03T07:49:49Z</time>
					</trkpt>
					<trkpt lat="48.048370" lon="6.567420">
						<ele>590</ele>
						<time>2023-07-03T07:49:56Z</time>
					</trkpt>
					<trkpt lat="48.047570" lon="6.567000">
						<ele>589</ele>
						<time>2023-07-03T07:50:11Z</time>
					</trkpt>
					<trkpt lat="48.046730" lon="6.566700">
						<ele>581</ele>
						<time>2023-07-03T07:50:27Z</time>
					</trkpt>
					<trkpt lat="48.046470" lon="6.566660">
						<ele>579</ele>
						<time>2023-07-03T07:50:31Z</time>
					</trkpt>
					<trkpt lat="48.046280" lon="6.566690">
						<ele>576</ele>
						<time>2023-07-03T07:50:35Z</time>
					</trkpt>
					<trkpt lat="48.046160" lon="6.566760">
						<ele>574</ele>
						<time>2023-07-03T07:50:37Z</time>
					</trkpt>
					<trkpt lat="48.046130" lon="6.566600">
						<ele>575</ele>
						<time>2023-07-03T07:50:39Z</time>
					</trkpt>
					<trkpt lat="48.046010" lon="6.566350">
						<ele>573</ele>
						<time>2023-07-03T07:50:43Z</time>
					</trkpt>
					<trkpt lat="48.045930" lon="6.566260">
						<ele>571</ele>
						<time>2023-07-03T07:50:44Z</time>
					</trkpt>
					<trkpt lat="48.045830" lon="6.566150">
						<ele>569</ele>
						<time>2023-07-03T07:50:47Z</time>
					</trkpt>
					<trkpt lat="48.045650" lon="6.566150">
						<ele>567</ele>
						<time>2023-07-03T07:50:50Z</time>
					</trkpt>
					<trkpt lat="48.045490" lon="6.566310">
						<ele>566</ele>
						<time>2023-07-03T07:50:53Z</time>
					</trkpt>
					<trkpt lat="48.044970" lon="6.567010">
						<ele>566</ele>
						<time>2023-07-03T07:51:06Z</time>
					</trkpt>
					<trkpt lat="48.044900" lon="6.567030">
						<ele>565</ele>
						<time>2023-07-03T07:51:07Z</time>
					</trkpt>
					<trkpt lat="48.044870" lon="6.566990">
						<ele>564</ele>
						<time>2023-07-03T07:51:08Z</time>
					</trkpt>
					<trkpt lat="48.044880" lon="6.566740">
						<ele>563</ele>
						<time>2023-07-03T07:51:11Z</time>
					</trkpt>
					<trkpt lat="48.044930" lon="6.566450">
						<ele>560</ele>
						<time>2023-07-03T07:51:14Z</time>
					</trkpt>
					<trkpt lat="48.045390" lon="6.565440">
						<ele>558</ele>
						<time>2023-07-03T07:51:29Z</time>
					</trkpt>
					<trkpt lat="48.045500" lon="6.565070">
						<ele>558</ele>
						<time>2023-07-03T07:51:34Z</time>
					</trkpt>
					<trkpt lat="48.045510" lon="6.564890">
						<ele>557</ele>
						<time>2023-07-03T07:51:36Z</time>
					</trkpt>
					<trkpt lat="48.045470" lon="6.564670">
						<ele>555</ele>
						<time>2023-07-03T07:51:38Z</time>
					</trkpt>
					<trkpt lat="48.045470" lon="6.564550">
						<ele>554</ele>
						<time>2023-07-03T07:51:40Z</time>
					</trkpt>
					<trkpt lat="48.045390" lon="6.564540">
						<ele>552</ele>
						<time>2023-07-03T07:51:41Z</time>
					</trkpt>
					<trkpt lat="48.045130" lon="6.564260">
						<ele>543</ele>
						<time>2023-07-03T07:51:47Z</time>
					</trkpt>
					<trkpt lat="48.044790" lon="6.564000">
						<ele>544</ele>
						<time>2023-07-03T07:51:54Z</time>
					</trkpt>
					<trkpt lat="48.044690" lon="6.564200">
						<ele>547</ele>
						<time>2023-07-03T07:51:57Z</time>
					</trkpt>
					<trkpt lat="48.044070" lon="6.565230">
						<ele>548</ele>
						<time>2023-07-03T07:52:13Z</time>
					</trkpt>
					<trkpt lat="48.043900" lon="6.565580">
						<ele>549</ele>
						<time>2023-07-03T07:52:18Z</time>
					</trkpt>
					<trkpt lat="48.043860" lon="6.565770">
						<ele>548</ele>
						<time>2023-07-03T07:52:21Z</time>
					</trkpt>
					<trkpt lat="48.043850" lon="6.566070">
						<ele>549</ele>
						<time>2023-07-03T07:52:24Z</time>
					</trkpt>
					<trkpt lat="48.043770" lon="6.566480">
						<ele>551</ele>
						<time>2023-07-03T07:52:29Z</time>
					</trkpt>
					<trkpt lat="48.043480" lon="6.567130">
						<ele>554</ele>
						<time>2023-07-03T07:52:39Z</time>
					</trkpt>
					<trkpt lat="48.043330" lon="6.567830">
						<ele>554</ele>
						<time>2023-07-03T07:52:48Z</time>
					</trkpt>
					<trkpt lat="48.043320" lon="6.568250">
						<ele>555</ele>
						<time>2023-07-03T07:52:53Z</time>
					</trkpt>
					<trkpt lat="48.043310" lon="6.568590">
						<ele>556</ele>
						<time>2023-07-03T07:52:57Z</time>
					</trkpt>
					<trkpt lat="48.043250" lon="6.569250">
						<ele>557</ele>
						<time>2023-07-03T07:53:04Z</time>
					</trkpt>
					<trkpt lat="48.043140" lon="6.569740">
						<ele>555</ele>
						<time>2023-07-03T07:53:11Z</time>
					</trkpt>
					<trkpt lat="48.042910" lon="6.569820">
						<ele>552</ele>
						<time>2023-07-03T07:53:15Z</time>
					</trkpt>
					<trkpt lat="48.041030" lon="6.570480">
						<ele>510</ele>
						<time>2023-07-03T07:53:49Z</time>
					</trkpt>
					<trkpt lat="48.040320" lon="6.570490">
						<ele>497</ele>
						<time>2023-07-03T07:54:02Z</time>
					</trkpt>
					<trkpt lat="48.039890" lon="6.570430">
						<ele>493</ele>
						<time>2023-07-03T07:54:10Z</time>
					</trkpt>
					<trkpt lat="48.039690" lon="6.570410">
						<ele>494</ele>
						<time>2023-07-03T07:54:13Z</time>
					</trkpt>
					<trkpt lat="48.039290" lon="6.570490">
						<ele>491</ele>
						<time>2023-07-03T07:54:20Z</time>
					</trkpt>
					<trkpt lat="48.038860" lon="6.570810">
						<ele>484</ele>
						<time>2023-07-03T07:54:29Z</time>
					</trkpt>
					<trkpt lat="48.038000" lon="6.571780">
						<ele>461</ele>
						<time>2023-07-03T07:54:48Z</time>
					</trkpt>
					<trkpt lat="48.036690" lon="6.572690">
						<ele>448</ele>
						<time>2023-07-03T07:55:14Z</time>
					</trkpt>
					<trkpt lat="48.035950" lon="6.573180">
						<ele>444</ele>
						<time>2023-07-03T07:55:28Z</time>
					</trkpt>
					<trkpt lat="48.035410" lon="6.573280">
						<ele>445</ele>
						<time>2023-07-03T07:55:38Z</time>
					</trkpt>
					<trkpt lat="48.035270" lon="6.573330">
						<ele>444</ele>
						<time>2023-07-03T07:55:40Z</time>
					</trkpt>
					<trkpt lat="48.034880" lon="6.573280">
						<ele>445</ele>
						<time>2023-07-03T07:55:47Z</time>
					</trkpt>
					<trkpt lat="48.034340" lon="6.573140">
						<ele>442</ele>
						<time>2023-07-03T07:55:57Z</time>
					</trkpt>
					<trkpt lat="48.033400" lon="6.573080">
						<ele>433</ele>
						<time>2023-07-03T07:56:14Z</time>
					</trkpt>
					<trkpt lat="48.033160" lon="6.573110">
						<ele>430</ele>
						<time>2023-07-03T07:56:18Z</time>
					</trkpt>
					<trkpt lat="48.032690" lon="6.573280">
						<ele>422</ele>
						<time>2023-07-03T07:56:27Z</time>
					</trkpt>
					<trkpt lat="48.032350" lon="6.573340">
						<ele>419</ele>
						<time>2023-07-03T07:56:33Z</time>
					</trkpt>
					<trkpt lat="48.031890" lon="6.573300">
						<ele>414</ele>
						<time>2023-07-03T07:56:41Z</time>
					</trkpt>
					<trkpt lat="48.031350" lon="6.573300">
						<ele>409</ele>
						<time>2023-07-03T07:56:51Z</time>
					</trkpt>
					<trkpt lat="48.031090" lon="6.573240">
						<ele>407</ele>
						<time>2023-07-03T07:56:55Z</time>
					</trkpt>
					<trkpt lat="48.030830" lon="6.573140">
						<ele>405</ele>
						<time>2023-07-03T07:57:00Z</time>
					</trkpt>
					<trkpt lat="48.030770" lon="6.573350">
						<ele>405</ele>
						<time>2023-07-03T07:57:03Z</time>
					</trkpt>
					<trkpt lat="48.030730" lon="6.573370">
						<ele>404</ele>
						<time>2023-07-03T07:57:03Z</time>
					</trkpt>
					<trkpt lat="48.030690" lon="6.573440">
						<ele>404</ele>
						<time>2023-07-03T07:57:05Z</time>
					</trkpt>
					<trkpt lat="48.030610" lon="6.573710">
						<ele>403</ele>
						<time>2023-07-03T07:57:08Z</time>
					</trkpt>
					<trkpt lat="48.030610" lon="6.573900">
						<ele>403</ele>
						<time>2023-07-03T07:57:10Z</time>
					</trkpt>
					<trkpt lat="48.030520" lon="6.574130">
						<ele>403</ele>
						<time>2023-07-03T07:57:14Z</time>
					</trkpt>
					<trkpt lat="48.030160" lon="6.574690">
						<ele>402</ele>
						<time>2023-07-03T07:57:23Z</time>
					</trkpt>
					<trkpt lat="48.029690" lon="6.575910">
						<ele>400</ele>
						<time>2023-07-03T07:57:40Z</time>
					</trkpt>
					<trkpt lat="48.029530" lon="6.575830">
						<ele>400</ele>
						<time>2023-07-03T07:57:43Z</time>
					</trkpt>
					<trkpt lat="48.029440" lon="6.575860">
						<ele>400</ele>
						<time>2023-07-03T07:57:44Z</time>
					</trkpt>
					<trkpt lat="48.029170" lon="6.575690">
						<ele>399</ele>
						<time>2023-07-03T07:57:49Z</time>
					</trkpt>
					<trkpt lat="48.029040" lon="6.576040">
						<ele>398</ele>
						<time>2023-07-03T07:57:54Z</time>
					</trkpt>
					<trkpt lat="48.028770" lon="6.576790">
						<ele>397</ele>
						<time>2023-07-03T07:58:04Z</time>
					</trkpt>
					<trkpt lat="48.028710" lon="6.576830">
						<ele>397</ele>
						<time>2023-07-03T07:58:05Z</time>
					</trkpt>
					<trkpt lat="48.028820" lon="6.577100">
						<ele>398</ele>
						<time>2023-07-03T07:58:09Z</time>
					</trkpt>
					<trkpt lat="48.027810" lon="6.578850">
						<ele>389</ele>
						<time>2023-07-03T07:58:37Z</time>
					</trkpt>
					<trkpt lat="48.027610" lon="6.579240">
						<ele>386</ele>
						<time>2023-07-03T07:58:43Z</time>
					</trkpt>
					<trkpt lat="48.027570" lon="6.579410">
						<ele>386</ele>
						<time>2023-07-03T07:58:45Z</time>
					</trkpt>
					<trkpt lat="48.027570" lon="6.579640">
						<ele>386</ele>
						<time>2023-07-03T07:58:47Z</time>
					</trkpt>
					<trkpt lat="48.027270" lon="6.579770">
						<ele>386</ele>
						<time>2023-07-03T07:58:53Z</time>
					</trkpt>
					<trkpt lat="48.026750" lon="6.580210">
						<ele>386</ele>
						<time>2023-07-03T07:59:04Z</time>
					</trkpt>
					<trkpt lat="48.026680" lon="6.580260">
						<ele>386</ele>
						<time>2023-07-03T07:59:05Z</time>
					</trkpt>
					<trkpt lat="48.026530" lon="6.580410">
						<ele>385</ele>
						<time>2023-07-03T07:59:08Z</time>
					</trkpt>
					<trkpt lat="48.026400" lon="6.580600">
						<ele>385</ele>
						<time>2023-07-03T07:59:11Z</time>
					</trkpt>
					<trkpt lat="48.025970" lon="6.581330">
						<ele>383</ele>
						<time>2023-07-03T07:59:23Z</time>
					</trkpt>
					<trkpt lat="48.025400" lon="6.582780">
						<ele>382</ele>
						<time>2023-07-03T07:59:43Z</time>
					</trkpt>
					<trkpt lat="48.025160" lon="6.583470">
						<ele>382</ele>
						<time>2023-07-03T07:59:52Z</time>
					</trkpt>
					<trkpt lat="48.024890" lon="6.584330">
						<ele>382</ele>
						<time>2023-07-03T08:00:04Z</time>
					</trkpt>
					<trkpt lat="48.024780" lon="6.584710">
						<ele>381</ele>
						<time>2023-07-03T08:00:09Z</time>
					</trkpt>
					<trkpt lat="48.024540" lon="6.585420">
						<ele>381</ele>
						<time>2023-07-03T08:00:18Z</time>
					</trkpt>
					<trkpt lat="48.024340" lon="6.585750">
						<ele>381</ele>
						<time>2023-07-03T08:00:23Z</time>
					</trkpt>
					<trkpt lat="48.023790" lon="6.586460">
						<ele>381</ele>
						<time>2023-07-03T08:00:36Z</time>
					</trkpt>
					<trkpt lat="48.023560" lon="6.586710">
						<ele>382</ele>
						<time>2023-07-03T08:00:41Z</time>
					</trkpt>
					<trkpt lat="48.023280" lon="6.586940">
						<ele>382</ele>
						<time>2023-07-03T08:00:47Z</time>
					</trkpt>
					<trkpt lat="48.023060" lon="6.587070">
						<ele>382</ele>
						<time>2023-07-03T08:00:51Z</time>
					</trkpt>
					<trkpt lat="48.022910" lon="6.587220">
						<ele>382</ele>
						<time>2023-07-03T08:00:54Z</time>
					</trkpt>
					<trkpt lat="48.022870" lon="6.587350">
						<ele>382</ele>
						<time>2023-07-03T08:00:56Z</time>
					</trkpt>
					<trkpt lat="48.022820" lon="6.587380">
						<ele>382</ele>
						<time>2023-07-03T08:00:57Z</time>
					</trkpt>
					<trkpt lat="48.022760" lon="6.587370">
						<ele>383</ele>
						<time>2023-07-03T08:00:58Z</time>
					</trkpt>
					<trkpt lat="48.022600" lon="6.587550">
						<ele>383</ele>
						<time>2023-07-03T08:01:02Z</time>
					</trkpt>
					<trkpt lat="48.022520" lon="6.587590">
						<ele>383</ele>
						<time>2023-07-03T08:01:03Z</time>
					</trkpt>
					<trkpt lat="48.022150" lon="6.588140">
						<ele>383</ele>
						<time>2023-07-03T08:01:12Z</time>
					</trkpt>
					<trkpt lat="48.021920" lon="6.588540">
						<ele>382</ele>
						<time>2023-07-03T08:01:19Z</time>
					</trkpt>
					<trkpt lat="48.021800" lon="6.588690">
						<ele>382</ele>
						<time>2023-07-03T08:01:22Z</time>
					</trkpt>
					<trkpt lat="48.021720" lon="6.588770">
						<ele>382</ele>
						<time>2023-07-03T08:01:23Z</time>
					</trkpt>
					<trkpt lat="48.021500" lon="6.588850">
						<ele>384</ele>
						<time>2023-07-03T08:01:27Z</time>
					</trkpt>
					<trkpt lat="48.021210" lon="6.588880">
						<ele>385</ele>
						<time>2023-07-03T08:01:32Z</time>
					</trkpt>
					<trkpt lat="48.020940" lon="6.588870">
						<ele>387</ele>
						<time>2023-07-03T08:01:37Z</time>
					</trkpt>
					<trkpt lat="48.020780" lon="6.588910">
						<ele>388</ele>
						<time>2023-07-03T08:01:40Z</time>
					</trkpt>
					<trkpt lat="48.020580" lon="6.588970">
						<ele>389</ele>
						<time>2023-07-03T08:01:44Z</time>
					</trkpt>
					<trkpt lat="48.020370" lon="6.589130">
						<ele>390</ele>
						<time>2023-07-03T08:01:48Z</time>
					</trkpt>
					<trkpt lat="48.020240" lon="6.589270">
						<ele>390</ele>
						<time>2023-07-03T08:01:51Z</time>
					</trkpt>
					<trkpt lat="48.019990" lon="6.589610">
						<ele>390</ele>
						<time>2023-07-03T08:01:57Z</time>
					</trkpt>
					<trkpt lat="48.019810" lon="6.589930">
						<ele>391</ele>
						<time>2023-07-03T08:02:02Z</time>
					</trkpt>
					<trkpt lat="48.019540" lon="6.590630">
						<ele>392</ele>
						<time>2023-07-03T08:02:11Z</time>
					</trkpt>
					<trkpt lat="48.019290" lon="6.591440">
						<ele>388</ele>
						<time>2023-07-03T08:02:22Z</time>
					</trkpt>
					<trkpt lat="48.019070" lon="6.592080">
						<ele>388</ele>
						<time>2023-07-03T08:02:31Z</time>
					</trkpt>
					<trkpt lat="48.018760" lon="6.593730">
						<ele>393</ele>
						<time>2023-07-03T08:02:51Z</time>
					</trkpt>
					<trkpt lat="48.018490" lon="6.594700">
						<ele>394</ele>
						<time>2023-07-03T08:03:04Z</time>
					</trkpt>
					<trkpt lat="48.018260" lon="6.595240">
						<ele>393</ele>
						<time>2023-07-03T08:03:11Z</time>
					</trkpt>
					<trkpt lat="48.017950" lon="6.595730">
						<ele>391</ele>
						<time>2023-07-03T08:03:19Z</time>
					</trkpt>
					<trkpt lat="48.017370" lon="6.596210">
						<ele>390</ele>
						<time>2023-07-03T08:03:31Z</time>
					</trkpt>
					<trkpt lat="48.017160" lon="6.596390">
						<ele>390</ele>
						<time>2023-07-03T08:03:35Z</time>
					</trkpt>
					<trkpt lat="48.017040" lon="6.596190">
						<ele>391</ele>
						<time>2023-07-03T08:03:38Z</time>
					</trkpt>
					<trkpt lat="48.016860" lon="6.595950">
						<ele>392</ele>
						<time>2023-07-03T08:03:43Z</time>
					</trkpt>
					<trkpt lat="48.016800" lon="6.595800">
						<ele>393</ele>
						<time>2023-07-03T08:03:45Z</time>
					</trkpt>
					<trkpt lat="48.016790" lon="6.595780">
						<ele>393</ele>
						<time>2023-07-03T08:03:45Z</time>
					</trkpt>
					<trkpt lat="48.016800" lon="6.595800">
						<ele>393</ele>
						<time>2023-07-03T08:03:45Z</time>
					</trkpt>
					<trkpt lat="48.016680" lon="6.596150">
						<ele>392</ele>
						<time>2023-07-03T08:03:50Z</time>
					</trkpt>
					<trkpt lat="48.016570" lon="6.596580">
						<ele>391</ele>
						<time>2023-07-03T08:03:56Z</time>
					</trkpt>
					<trkpt lat="48.016430" lon="6.597100">
						<ele>391</ele>
						<time>2023-07-03T08:04:02Z</time>
					</trkpt>
					<trkpt lat="48.016240" lon="6.597860">
						<ele>390</ele>
						<time>2023-07-03T08:04:12Z</time>
					</trkpt>
					<trkpt lat="48.016170" lon="6.598110">
						<ele>390</ele>
						<time>2023-07-03T08:04:15Z</time>
					</trkpt>
					<trkpt lat="48.016100" lon="6.598240">
						<ele>389</ele>
						<time>2023-07-03T08:04:17Z</time>
					</trkpt>
					<trkpt lat="48.016050" lon="6.598230">
						<ele>389</ele>
						<time>2023-07-03T08:04:18Z</time>
					</trkpt>
					<trkpt lat="48.016000" lon="6.598260">
						<ele>389</ele>
						<time>2023-07-03T08:04:19Z</time>
					</trkpt>
					<trkpt lat="48.015970" lon="6.598270">
						<ele>389</ele>
						<time>2023-07-03T08:04:20Z</time>
					</trkpt>
					<trkpt lat="48.015010" lon="6.596800">
						<ele>392</ele>
						<time>2023-07-03T08:04:44Z</time>
					</trkpt>
					<trkpt lat="48.014700" lon="6.596340">
						<ele>392</ele>
						<time>2023-07-03T08:04:52Z</time>
					</trkpt>
					<trkpt lat="48.014610" lon="6.596100">
						<ele>392</ele>
						<time>2023-07-03T08:04:55Z</time>
					</trkpt>
					<trkpt lat="48.014620" lon="6.596010">
						<ele>392</ele>
						<time>2023-07-03T08:04:56Z</time>
					</trkpt>
					<trkpt lat="48.014580" lon="6.595900">
						<ele>391</ele>
						<time>2023-07-03T08:04:58Z</time>
					</trkpt>
					<trkpt lat="48.014540" lon="6.595870">
						<ele>391</ele>
						<time>2023-07-03T08:04:58Z</time>
					</trkpt>
					<trkpt lat="48.014510" lon="6.595850">
						<ele>391</ele>
						<time>2023-07-03T08:04:59Z</time>
					</trkpt>
					<trkpt lat="48.014440" lon="6.595640">
						<ele>392</ele>
						<time>2023-07-03T08:05:02Z</time>
					</trkpt>
					<trkpt lat="48.014340" lon="6.594990">
						<ele>393</ele>
						<time>2023-07-03T08:05:10Z</time>
					</trkpt>
					<trkpt lat="48.014400" lon="6.594950">
						<ele>393</ele>
						<time>2023-07-03T08:05:11Z</time>
					</trkpt>
					<trkpt lat="48.014370" lon="6.594070">
						<ele>394</ele>
						<time>2023-07-03T08:05:21Z</time>
					</trkpt>
					<trkpt lat="48.014380" lon="6.593990">
						<ele>394</ele>
						<time>2023-07-03T08:05:22Z</time>
					</trkpt>
					<trkpt lat="48.014310" lon="6.594000">
						<ele>394</ele>
						<time>2023-07-03T08:05:24Z</time>
					</trkpt>
					<trkpt lat="48.014320" lon="6.593930">
						<ele>394</ele>
						<time>2023-07-03T08:05:24Z</time>
					</trkpt>
					<trkpt lat="48.014260" lon="6.592280">
						<ele>398</ele>
						<time>2023-07-03T08:05:44Z</time>
					</trkpt>
					<trkpt lat="48.014250" lon="6.590640">
						<ele>401</ele>
						<time>2023-07-03T08:06:04Z</time>
					</trkpt>
					<trkpt lat="48.013980" lon="6.590560">
						<ele>404</ele>
						<time>2023-07-03T08:06:09Z</time>
					</trkpt>
					<trkpt lat="48.013640" lon="6.590080">
						<ele>406</ele>
						<time>2023-07-03T08:06:17Z</time>
					</trkpt>
					<trkpt lat="48.013840" lon="6.589500">
						<ele>405</ele>
						<time>2023-07-03T08:06:25Z</time>
					</trkpt>
					<trkpt lat="48.013850" lon="6.589420">
						<ele>405</ele>
						<time>2023-07-03T08:06:26Z</time>
					</trkpt>
					<trkpt lat="48.013840" lon="6.589350">
						<ele>405</ele>
						<time>2023-07-03T08:06:26Z</time>
					</trkpt>
					<trkpt lat="48.013430" lon="6.588810">
						<ele>407</ele>
						<time>2023-07-03T08:06:36Z</time>
					</trkpt>
					<trkpt lat="48.012880" lon="6.588060">
						<ele>412</ele>
						<time>2023-07-03T08:06:49Z</time>
					</trkpt>
					<trkpt lat="48.012550" lon="6.587800">
						<ele>414</ele>
						<time>2023-07-03T08:06:56Z</time>
					</trkpt>
					<trkpt lat="48.012530" lon="6.587980">
						<ele>415</ele>
						<time>2023-07-03T08:06:58Z</time>
					</trkpt>
					<trkpt lat="48.012570" lon="6.588060">
						<ele>415</ele>
						<time>2023-07-03T08:06:59Z</time>
					</trkpt>
					<trkpt lat="48.012580" lon="6.588280">
						<ele>415</ele>
						<time>2023-07-03T08:07:02Z</time>
					</trkpt>
					<trkpt lat="48.012620" lon="6.588550">
						<ele>415</ele>
						<time>2023-07-03T08:07:05Z</time>
					</trkpt>
					</trkseg>
				</trk>
			</gpx>